Return to Metar
METAR CYNL 030100Z AUTO 11010KT 9SM BKN045 BKN090 M18/M20 A2982 RMK AO1 SLP173
METAR CYNL 030000Z AUTO 10008KT 9SM SCT049 OVC088 M18/M20 A2981 RMK AO1 SLP173
METAR CYNL 022300Z AUTO 10007KT 9SM OVC090 M18/M21 A2982 RMK AO1 SLP180
METAR CYNL 022200Z AUTO 10007KT 9SM OVC090 M18/M21 A2982 RMK AO1 SLP180
METAR CYNL 022100Z AUTO 13006KT 9SM SCT090 M18/M21 A2984 RMK AO1 SLP188
METAR CYNL 022000Z AUTO 13005KT 9SM SCT096 M19/M22 A2985 RMK AO1 SLP190
METAR CYNL 021900Z AUTO 11005KT 9SM BKN098 M20/M23 A2985 RMK AO1 PRESFR SLP191
METAR CYNL 021800Z AUTO 18004KT 9SM CLR M22/M26 A2987 RMK AO1 SLP204
METAR CYNL 021700Z AUTO 10002KT 9SM CLR M24/M27 A2987 RMK AO1 SLP208
METAR CYNL 021600Z AUTO VRB02KT 9SM CLR M24/M27 A2987 RMK AO1 SLP206
METAR CYNL 021500Z AUTO 09003KT 9SM CLR M24/M27 A2987 RMK AO1 SLP205
METAR CYNL 021400Z AUTO 00000KT 9SM CLR M23/M26 A2988 RMK AO1 SLP206
SPECI CYNL 021314Z AUTO 18003KT 9SM FEW008 SCT084 M24/M28 A2987 RMK AO1 SLP207
METAR CYNL 021300Z AUTO 16002KT 9SM SCT084 BKN098 M25/M28 A2987 RMK AO1 SLP208
SPECI CYNL 021223Z AUTO ///// 9SM SCT005 BKN100 OVC130 M25/M29 A2986 RMK AO1 SLP203
METAR CYNL 021200Z AUTO 21003KT 9SM VV005 M26/M30 A2986 RMK AO1 SLP204
SPECI CYNL 021155Z AUTO 00000KT 9SM VV005 M26/M30 A2986 RMK AO1 SLP202
SPECI CYNL 021151Z AUTO 18002KT 9SM FEW005 SCT130 M26/M30 A2986 RMK AO1 SLP202
METAR CYNL 021100Z AUTO 00000KT 9SM CLR M27/M31 A2986 RMK AO1 SLP203
METAR CYNL 021000Z AUTO 00000KT 9SM CLR M28/M32 A2985 RMK AO1 SLP198
METAR CYNL 020900Z AUTO 00000KT 9SM CLR M27/M31 A2984 RMK AO1 SLP194
METAR CYNL 020800Z AUTO 00000KT 9SM CLR M27/M30 A2983 RMK AO1 SLP186
METAR CYNL 020700Z AUTO 00000KT 9SM CLR M28/M32 A2983 RMK AO1 SLP188
METAR CYNL 020600Z AUTO 00000KT 9SM CLR M28/M32 A2983 RMK AO1 SLP186
METAR CYNL 020500Z AUTO 00000KT 9SM CLR M27/M31 A2982 RMK AO1 SLP180
METAR CYNL 020400Z AUTO 00000KT 9SM CLR M28/M32 A2980 RMK AO1 SLP175
METAR CYNL 020300Z AUTO 00000KT 9SM CLR M27/M30 A2980 RMK AO1 SLP171
METAR CYNL 020200Z AUTO 00000KT 9SM CLR M27/M31 A2978 RMK AO1 SLP168
METAR CYNL 020100Z AUTO 00000KT 9SM CLR M25/M29 A2976 RMK AO1 SLP159
METAR CYNL 020000Z AUTO 02004KT 9SM CLR M25/M28 A2975 RMK AO1 PRESRR SLP154
METAR CYNL 012300Z AUTO ///// 9SM CLR M24/M27 A2973 RMK AO1 PRESRR SLP144
METAR CYNL 012200Z AUTO 06004KT 9SM CLR M22/M25 A2970 RMK AO1 PRESRR SLP130
METAR CYNL 012100Z AUTO 04004KT 9SM CLR M20/M23 A2966 RMK AO1 SLP113
METAR CYNL 012000Z AUTO 06004KT 9SM FEW047 M19/M23 A2964 RMK AO1 PRESRR SLP106
SPECI CYNL 011916Z AUTO 06008KT 9SM SCT024 BKN047 M19/M22 A2961 RMK AO1 SLP096
METAR CYNL 011900Z AUTO 06006KT 9SM OVC024 M18/M22 A2961 RMK AO1 SLP095
SPECI CYNL 011840Z AUTO 07008KT 9SM OVC024 M18/M21 A2960 RMK AO1 SLP090
METAR CYNL 011800Z AUTO 04007KT 9SM OVC027 M18/M21 A2960 RMK AO1 SLP088
SPECI CYNL 011723Z AUTO 06009KT 9SM FEW014 OVC027 M18/M21 A2958 RMK AO1 PRESRR SLP083
SPECI CYNL 011721Z AUTO 05008KT 9SM FEW015 SCT019 OVC027 M18/M21 A2958 RMK AO1 PRESRR SLP083
SPECI CYNL 011714Z AUTO 06006KT 9SM SCT016 OVC027 M18/M21 A2958 RMK AO1 PRESRR SLP083
SPECI CYNL 011708Z AUTO 07008KT 6SM BKN016 OVC025 M18/M21 A2958 RMK AO1 PRESRR SLP082
SPECI CYNL 011706Z AUTO 06008KT 5SM VV013 M18/M21 A2958 RMK AO1 PRESRR SLP082
SPECI CYNL 011705Z AUTO 06008KT 2 1/2SM VV014 M18/M21 A2958 RMK AO1 PRESRR SLP082
SPECI CYNL 011703Z AUTO 06009KT 1 3/4SM VV014 M18/M21 A2958 RMK AO1 PRESRR SLP082
SPECI CYNL 011702Z AUTO 06008KT 2SM VV015 M18/M21 A2958 RMK AO1 PRESRR SLP081
METAR CYNL 011700Z AUTO 06008KT 1 3/4SM VV017 M18/M21 A2958 RMK AO1 PRESRR SLP081
SPECI CYNL 011659Z AUTO 05007KT 2SM VV017 M18/M21 A2958 RMK AO1 PRESRR SLP081
METAR CYNL 011600Z AUTO 06006KT 9SM OVC015 M18/M21 A2956 RMK AO1 SLP074
METAR CYNL 011500Z AUTO 07007KT 9SM FEW016 OVC019 M19/M22 A2954 RMK AO1 SLP069
METAR CYNL 011400Z AUTO ///// 9SM OVC019 M19/M21 A2953 RMK AO1 SLP064
METAR CYNL 011300Z AUTO 07010KT 9SM BKN019 BKN024 M18/M21 A2951 RMK AO1 SLP061
SPECI CYNL 011211Z AUTO 07011KT 9SM SCT012 OVC016 M18/M21 A2952 RMK AO1 SLP062
METAR CYNL 011200Z AUTO 07010KT 9SM OVC012 M18/M21 A2952 RMK AO1 SLP062
METAR CYNL 011100Z AUTO 07011KT 9SM OVC011 M17/M20 A2953 RMK AO1 SLP063
METAR CYNL 011000Z AUTO 08008KT 9SM OVC011 M16/M19 A2953 RMK AO1 SLP065
METAR CYNL 010900Z AUTO 08010KT 9SM OVC014 M16/M19 A2953 RMK AO1 SLP066
SPECI CYNL 010850Z AUTO 08010KT 9SM OVC014 M16/M19 A2953 RMK AO1 PRESFR SLP065
SPECI CYNL 010830Z AUTO 08010G16KT 9SM OVC015 M16/M19 A2953 RMK AO1 PRESFR SLP066
METAR CYNL 010800Z AUTO 08009G15KT 9SM OVC014 M16/M18 A2955 RMK AO1 PRESFR SLP070
SPECI CYNL 010740Z AUTO 08009KT 9SM OVC014 M16/M18 A2956 RMK AO1 SLP074
METAR CYNL 010700Z AUTO 09007KT 9SM OVC016 M16/M18 A2959 RMK AO1 SLP083
METAR CYNL 010600Z AUTO 09009KT 9SM OVC016 M15/M18 A2959 RMK AO1 SLP084
SPECI CYNL 010514Z AUTO 07010KT 9SM FEW013 OVC018 M15/M18 A2960 RMK AO1 PRESFR SLP086
SPECI CYNL 010513Z AUTO 07009KT 9SM FEW013 SCT015 OVC018 M15/M18 A2960 RMK AO1 PRESFR SLP086
METAR CYNL 010500Z AUTO 07010KT 9SM SCT014 BKN019 OVC052 M15/M17 A2960 RMK AO1 PRESFR SLP086
SPECI CYNL 010456Z AUTO 08008KT 9SM SCT014 BKN019 OVC052 M15/M17 A2960 RMK AO1 SLP088
SPECI CYNL 010448Z AUTO 08008KT 9SM BKN014 BKN052 M15/M17 A2961 RMK AO1 SLP090
SPECI CYNL 010410Z AUTO 08007KT 9SM FEW005 OVC058 M15/M17 A2962 RMK AO1 SLP095
METAR CYNL 010400Z AUTO 08006KT 9SM OVC060 M15/M17 A2963 RMK AO1 SLP096
METAR CYNL 010300Z AUTO 08006KT 9SM OVC062 M15/M18 A2963 RMK AO1 PRESFR SLP099
SPECI CYNL 010211Z AUTO 09005KT 4SM FEW009 SCT014 BKN072 M15/M18 A2965 RMK AO1 SLP104
SPECI CYNL 010207Z AUTO 09006KT 7SM VV013 M15/M18 A2965 RMK AO1 SLP104
METAR CYNL 010200Z AUTO 09003KT 9SM FEW019 M15/M18 A2966 RMK AO1 SLP108
SPECI CYNL 010114Z AUTO 10005KT 9SM FEW003 SCT008 BKN012 M15/M18 A2966 RMK AO1 SLP110
SPECI CYNL 010111Z AUTO 10005KT 9SM SCT007 BKN012 BKN015 M15/M18 A2967 RMK AO1 SLP111
SPECI CYNL 010104Z AUTO 10006KT 4SM VV009 M15/M18 A2967 RMK AO1 SLP112
METAR CYNL 010100Z AUTO 10007KT 3SM VV011 M15/M18 A2967 RMK AO1 SLP113
SPECI CYNL 010052Z AUTO 10006KT 3SM VV014 M15/M18 A2968 RMK AO1 SLP114
SPECI CYNL 010041Z AUTO 11006KT 6SM VV016 M15/M18 A2969 RMK AO1 SLP117
SPECI CYNL 010037Z AUTO 11005KT 5SM VV010 M15/M18 A2969 RMK AO1 SLP117
SPECI CYNL 010028Z AUTO 10005KT 7SM VV009 M15/M18 A2969 RMK AO1 SLP117
SPECI CYNL 010022Z AUTO 09005KT 9SM FEW006 BKN010 M15/M18 A2969 RMK AO1 SLP118
SPECI CYNL 010020Z AUTO 10005KT 9SM FEW006 BKN009 M15/M18 A2969 RMK AO1 SLP118
SPECI CYNL 010015Z AUTO 10005KT 7SM FEW006 BKN010 BKN013 M15/M18 A2969 RMK AO1 SLP118
SPECI CYNL 010007Z AUTO 10005KT 4SM VV009 M15/M18 A2969 RMK AO1 SLP119
SPECI CYNL 010001Z AUTO 09005KT 3SM VV010 M15/M18 A2969 RMK AO1 SLP119
METAR CYNL 010000Z AUTO 09005KT 2 1/2SM VV010 M15/M18 A2969 RMK AO1 SLP119
SPECI CYNL 302343Z AUTO 09004KT 2SM VV013 M16/M18 A2970 RMK AO1 PRESFR SLP121
SPECI CYNL 302338Z AUTO 09005KT 1 3/4SM VV011 M16/M18 A2970 RMK AO1 PRESFR SLP121
SPECI CYNL 302323Z AUTO 09005KT 2SM VV010 M16/M18 A2970 RMK AO1 PRESFR SLP121
SPECI CYNL 302306Z AUTO 09005KT 1 3/4SM VV012 M16/M18 A2970 RMK AO1 PRESFR SLP123
SPECI CYNL 302304Z AUTO 09005KT 2SM VV011 M16/M18 A2970 RMK AO1 PRESFR SLP123
SPECI CYNL 302303Z AUTO 10005KT 1 3/4SM VV011 M16/M18 A2970 RMK AO1 PRESFR SLP123
SPECI CYNL 302302Z AUTO 09006KT 2SM VV011 M16/M18 A2970 RMK AO1 PRESFR SLP123
METAR CYNL 302300Z AUTO 09005KT 1 3/4SM VV011 M16/M18 A2970 RMK AO1 PRESFR SLP123
SPECI CYNL 302214Z AUTO 09004KT 1 1/2SM VV011 M16/M19 A2972 RMK AO1 SLP130
SPECI CYNL 302208Z AUTO 09004KT 1 1/4SM VV011 M16/M19 A2972 RMK AO1 SLP131
SPECI CYNL 302201Z AUTO 10005KT 1 3/4SM VV012 M16/M19 A2972 RMK AO1 SLP132
METAR CYNL 302200Z AUTO 10005KT 2SM VV012 M16/M19 A2973 RMK AO1 SLP132
SPECI CYNL 302154Z AUTO 10004KT 2SM VV012 M16/M19 A2973 RMK AO1 PRESFR SLP133
SPECI CYNL 302141Z AUTO 10005KT 1 3/4SM VV012 M17/M19 A2973 RMK AO1 PRESFR SLP135
SPECI CYNL 302137Z AUTO 09003KT 2SM VV014 M17/M19 A2973 RMK AO1 PRESFR SLP135
SPECI CYNL 302133Z AUTO 09004KT 2 1/2SM VV018 M17/M19 A2973 RMK AO1 PRESFR SLP134
SPECI CYNL 302123Z AUTO 09005KT 6SM VV015 M17/M19 A2973 RMK AO1 PRESFR SLP135
SPECI CYNL 302111Z AUTO 08004KT 6SM VV014 M17/M19 A2974 RMK AO1 PRESFR SLP137
METAR CYNL 302100Z AUTO 08005KT 4SM VV020 M17/M20 A2974 RMK AO1 PRESFR SLP138
SPECI CYNL 302050Z AUTO 10004KT 3SM VV016 M17/M20 A2974 RMK AO1 SLP138
SPECI CYNL 302049Z AUTO 09005KT 2 1/2SM VV015 M17/M20 A2974 RMK AO1 SLP138
SPECI CYNL 302047Z AUTO 10004KT 2SM VV014 M17/M20 A2975 RMK AO1 SLP139
SPECI CYNL 302043Z AUTO 11003KT 1 1/2SM VV011 M17/M20 A2975 RMK AO1 SLP140
SPECI CYNL 302035Z AUTO 10004KT 1 1/4SM VV011 M17/M20 A2975 RMK AO1 SLP140
SPECI CYNL 302023Z AUTO 11004KT 1 3/4SM VV014 M17/M20 A2976 RMK AO1 SLP142
SPECI CYNL 302022Z AUTO 11004KT 2SM VV014 M17/M20 A2976 RMK AO1 SLP143
SPECI CYNL 302019Z AUTO 12003KT 2 1/2SM VV016 M17/M20 A2976 RMK AO1 SLP143
SPECI CYNL 302015Z AUTO 12003KT 4SM VV015 M17/M20 A2976 RMK AO1 SLP144
METAR CYNL 302000Z AUTO 13003KT 3SM VV012 M17/M20 A2977 RMK AO1 SLP146
SPECI CYNL 301955Z AUTO 13003KT 3SM VV012 M17/M20 A2977 RMK AO1 SLP146
SPECI CYNL 301943Z AUTO 15004KT 2 1/2SM VV010 M17/M20 A2977 RMK AO1 SLP147
SPECI CYNL 301942Z AUTO 15005KT 3SM VV010 M17/M20 A2977 RMK AO1 SLP147
SPECI CYNL 301941Z AUTO 15005KT 3SM VV009 M17/M20 A2977 RMK AO1 SLP147
SPECI CYNL 301936Z AUTO 14004KT 2SM VV009 M17/M20 A2977 RMK AO1 SLP148
SPECI CYNL 301934Z AUTO 14004KT 2 1/2SM VV010 M17/M20 A2977 RMK AO1 SLP148
METAR CYNL 301900Z AUTO 13005KT 9SM CLR M17/M20 A2979 RMK AO1 SLP153
SPECI CYNL 301838Z AUTO 16005KT 9SM SCT007 M17/M20 A2980 RMK AO1 SLP156
METAR CYNL 301800Z AUTO 18005KT 9SM OVC007 M17/M19 A2981 RMK AO1 SLP159
METAR CYNL 301700Z AUTO 15004KT 9SM OVC006 M17/M20 A2982 RMK AO1 SLP163
SPECI CYNL 301629Z AUTO 15003KT 9SM OVC005 M17/M20 A2983 RMK AO1 SLP167
SPECI CYNL 301618Z AUTO 14003KT 9SM OVC004 M17/M20 A2983 RMK AO1 SLP168
SPECI CYNL 301616Z AUTO 15003KT 9SM SCT003 OVC005 M17/M20 A2983 RMK AO1 SLP168
METAR CYNL 301600Z AUTO 00000KT 9SM OVC003 M17/M20 A2983 RMK AO1 SLP169
SPECI CYNL 301539Z AUTO 00000KT 4SM OVC003 M17/M20 A2984 RMK AO1 SLP171
SPECI CYNL 301538Z AUTO 00000KT 2 1/2SM OVC003 M17/M20 A2984 RMK AO1 SLP171
SPECI CYNL 301536Z AUTO 00000KT 1 1/2SM OVC003 M17/M20 A2984 RMK AO1 SLP171
SPECI CYNL 301535Z AUTO 00000KT 2SM OVC003 M17/M20 A2984 RMK AO1 SLP171
SPECI CYNL 301515Z AUTO 22003KT 5SM OVC003 M17/M20 A2985 RMK AO1 SLP174
SPECI CYNL 301514Z AUTO 23002KT 2SM OVC003 M17/M20 A2985 RMK AO1 SLP174
SPECI CYNL 301511Z AUTO 00000KT 1 1/4SM OVC003 M17/M20 A2985 RMK AO1 SLP175
SPECI CYNL 301509Z AUTO 00000KT 2 1/2SM OVC003 M17/M20 A2985 RMK AO1 SLP175
SPECI CYNL 301507Z AUTO 00000KT 3SM OVC003 M17/M20 A2985 RMK AO1 SLP175
SPECI CYNL 301506Z AUTO 26002KT 2SM OVC003 M17/M20 A2985 RMK AO1 SLP175
SPECI CYNL 301504Z AUTO 26003KT 1 1/2SM OVC003 M17/M20 A2985 RMK AO1 SLP176
METAR CYNL 301500Z AUTO 00000KT 9SM OVC003 M17/M20 A2985 RMK AO1 SLP176
METAR CYNL 301400Z AUTO 31004KT 9SM OVC004 M17/M19 A2987 RMK AO1 PRESFR SLP181
SPECI CYNL 301306Z AUTO 28007KT 9SM OVC004 M17/M19 A2988 RMK AO1 SLP185
METAR CYNL 301300Z AUTO 28007KT 9SM OVC005 M16/M19 A2988 RMK AO1 SLP187
METAR CYNL 301200Z AUTO 27004KT 9SM OVC009 M16/M19 A2989 RMK AO1 SLP188
SPECI CYNL 301155Z AUTO 26005KT 9SM BKN009 OVC012 M17/M19 A2989 RMK AO1 SLP188
SPECI CYNL 301117Z AUTO 27004KT 9SM SCT009 BKN014 M17/M19 A2990 RMK AO1 SLP190
SPECI CYNL 301116Z AUTO 28005KT 9SM BKN009 BKN015 M17/M19 A2990 RMK AO1 SLP190
SPECI CYNL 301105Z AUTO 28004KT 9SM SCT009 BKN014 M17/M19 A2990 RMK AO1 SLP190
SPECI CYNL 301103Z AUTO 28004KT 9SM SCT009 BKN015 M17/M19 A2990 RMK AO1 SLP191
METAR CYNL 301100Z AUTO 27005KT 9SM SCT010 BKN015 M17/M19 A2990 RMK AO1 SLP191
SPECI CYNL 301057Z AUTO 27004KT 9SM SCT010 BKN014 M17/M19 A2990 RMK AO1 SLP190
SPECI CYNL 301055Z AUTO 27004KT 9SM SCT009 BKN015 M17/M19 A2990 RMK AO1 SLP189
SPECI CYNL 301049Z AUTO 27003KT 9SM SCT009 BKN012 OVC015 M16/M19 A2990 RMK AO1 SLP189
SPECI CYNL 301024Z AUTO 27005KT 9SM BKN012 OVC016 M16/M19 A2991 RMK AO1 SLP192
SPECI CYNL 301023Z AUTO 27007KT 9SM FEW010 SCT012 OVC016 M16/M19 A2991 RMK AO1 SLP192
SPECI CYNL 301013Z AUTO 26006KT 9SM FEW010 OVC015 M16/M19 A2991 RMK AO1 SLP192
SPECI CYNL 301012Z AUTO 26004KT 9SM OVC014 M16/M19 A2991 RMK AO1 SLP193
SPECI CYNL 301011Z AUTO 26006KT 9SM OVC015 M16/M19 A2991 RMK AO1 SLP193
SPECI CYNL 301008Z AUTO 27006KT 9SM OVC014 M16/M19 A2991 RMK AO1 SLP193
METAR CYNL 301000Z AUTO 26005KT 9SM OVC016 M16/M19 A2991 RMK AO1 SLP193
SPECI CYNL 300920Z AUTO 26006KT 9SM OVC015 M16/M19 A2992 RMK AO1 SLP194
METAR CYNL 300900Z AUTO 26007KT 9SM OVC013 M16/M19 A2992 RMK AO1 SLP196
SPECI CYNL 300829Z AUTO 26006KT 9SM BKN011 BKN015 OVC018 M16/M18 A2991 RMK AO1 SLP191
SPECI CYNL 300823Z AUTO 26006KT 6SM SCT010 BKN015 OVC018 M16/M18 A2992 RMK AO1 SLP192
SPECI CYNL 300822Z AUTO 26006KT 9SM FEW008 BKN010 OVC016 M16/M18 A2992 RMK AO1 SLP192
SPECI CYNL 300821Z AUTO 25007KT 9SM FEW008 SCT010 BKN012 M16/M18 A2992 RMK AO1 SLP192
SPECI CYNL 300813Z AUTO 26004KT 6SM SCT009 OVC011 M16/M18 A2992 RMK AO1 SLP191
SPECI CYNL 300812Z AUTO 27005KT 8SM BKN009 OVC012 M16/M18 A2992 RMK AO1 SLP191
SPECI CYNL 300811Z AUTO 27006KT 9SM OVC010 M16/M18 A2991 RMK AO1 SLP191
METAR CYNL 300800Z AUTO 26005KT 9SM BKN009 OVC011 M16/M18 A2991 RMK AO1 SLP191
SPECI CYNL 300750Z AUTO 27006KT 9SM OVC009 M16/M18 A2991 RMK AO1 SLP188
SPECI CYNL 300733Z AUTO 26003KT 9SM OVC010 M16/M18 A2991 RMK AO1 SLP188
METAR CYNL 300700Z AUTO 27004KT 9SM OVC008 M16/M18 A2990 RMK AO1 SLP183
METAR CYNL 300600Z AUTO 28009G16KT 5SM FEW004 BKN007 OVC011 M15/M18 A2989 RMK AO1 SLP178
SPECI CYNL 300551Z AUTO 29009G16KT 4SM FEW004 BKN008 OVC011 M15/M18 A2989 RMK AO1 SLP176
SPECI CYNL 300550Z AUTO 28012KT 3SM FEW003 SCT008 BKN009 M16/M18 A2989 RMK AO1 SLP176
SPECI CYNL 300524Z AUTO 27008G19KT 5SM FEW003 OVC009 M16/M19 A2989 RMK AO1 SLP177
SPECI CYNL 300519Z AUTO 28008G19KT 7SM FEW003 SCT006 BKN009 M16/M19 A2989 RMK AO1 SLP177
SPECI CYNL 300510Z AUTO 28008G16KT 4SM SCT003 BKN005 OVC010 M16/M19 A2989 RMK AO1 SLP179
SPECI CYNL 300508Z AUTO 29006G16KT 5SM SCT003 OVC010 M16/M19 A2989 RMK AO1 SLP179
SPECI CYNL 300502Z AUTO 29012KT 4SM SCT003 BKN005 BKN009 M16/M19 A2989 RMK AO1 SLP180
METAR CYNL 300500Z AUTO 29012KT 6SM BKN003 BKN009 OVC012 M16/M19 A2989 RMK AO1 SLP180
SPECI CYNL 300445Z AUTO 29010G16KT 4SM BKN003 OVC011 M16/M19 A2989 RMK AO1 SLP175
SPECI CYNL 300436Z AUTO ///// 3SM SCT003 BKN007 OVC011 M16/M19 A2989 RMK AO1 SLP175
SPECI CYNL 300433Z AUTO ///// 3SM SCT003 OVC011 M16/M19 A2989 RMK AO1 SLP176
SPECI CYNL 300431Z AUTO ///// 3SM FEW003 SCT005 OVC011 M16/M19 A2989 RMK AO1 SLP176
SPECI CYNL 300430Z AUTO ///// 3SM SCT004 OVC011 M16/M19 A2989 RMK AO1 SLP176
SPECI CYNL 300427Z AUTO ///// 2 1/2SM SCT004 OVC011 M16/M19 A2989 RMK AO1 SLP177
SPECI CYNL 300419Z AUTO ///// 6SM FEW008 OVC011 M17/M19 A2989 RMK AO1 SLP178
METAR CYNL 300400Z AUTO ///// 9SM BKN011 M16/M19 A2990 RMK AO1 SLP180
SPECI CYNL 300350Z AUTO ///// 9SM BKN012 M16/M19 A2990 RMK AO1 SLP177
METAR CYNL 300300Z AUTO ///// 9SM CLR M16/M20 A2989 RMK AO1 SLP174
METAR CYNL 300200Z AUTO ///// 9SM CLR M16/M20 A2988 RMK AO1 PRESRR SLP169
METAR CYNL 300100Z AUTO ///// 9SM CLR M16/M20 A2986 RMK AO1 PRESRR SLP160
METAR CYNL 300000Z AUTO ///// 5SM SCT017 M15/M19 A2982 RMK AO1 PRESRR SLP149
SPECI CYNL 292355Z AUTO ///// 6SM SCT017 M15/M18 A2982 RMK AO1 PRESRR SLP150
SPECI CYNL 292350Z AUTO ///// 4SM BKN016 M15/M18 A2981 RMK AO1 PRESRR SLP148
SPECI CYNL 292349Z AUTO ///// 2 1/2SM SCT015 BKN018 M15/M18 A2981 RMK AO1 PRESRR SLP147
SPECI CYNL 292348Z AUTO ///// 1 3/4SM SCT015 BKN018 M15/M18 A2981 RMK AO1 PRESRR SLP147
SPECI CYNL 292346Z AUTO ///// 2 1/2SM SCT015 BKN018 M14/M18 A2981 RMK AO1 PRESRR SLP146
SPECI CYNL 292345Z AUTO ///// 3SM SCT015 BKN018 M14/M18 A2980 RMK AO1 PRESRR SLP146
SPECI CYNL 292344Z AUTO ///// 2 1/2SM SCT015 BKN018 M14/M18 A2980 RMK AO1 PRESRR SLP146
SPECI CYNL 292343Z AUTO ///// 1 1/2SM BKN015 BKN018 M14/M18 A2980 RMK AO1 PRESRR SLP145
SPECI CYNL 292341Z AUTO ///// 1 1/4SM BKN015 OVC018 M14/M18 A2980 RMK AO1 PRESRR SLP146
SPECI CYNL 292340Z AUTO ///// 2 1/2SM BKN015 OVC018 M14/M18 A2980 RMK AO1 PRESRR SLP145
SPECI CYNL 292328Z AUTO ///// 3SM OVC016 M14/M17 A2980 RMK AO1 PRESRR SLP143
SPECI CYNL 292326Z AUTO ///// 2SM BKN015 OVC019 M14/M17 A2980 RMK AO1 PRESRR SLP142
SPECI CYNL 292325Z AUTO ///// 1 3/4SM BKN015 OVC019 M14/M17 A2980 RMK AO1 PRESRR SLP142
SPECI CYNL 292320Z AUTO ///// 2 1/2SM BKN016 OVC019 M14/M17 A2979 RMK AO1 PRESRR SLP142
SPECI CYNL 292319Z AUTO ///// 3SM OVC017 M14/M17 A2979 RMK AO1 PRESRR SLP141
SPECI CYNL 292318Z AUTO ///// 2 1/2SM OVC017 M14/M17 A2979 RMK AO1 PRESRR SLP141
SPECI CYNL 292315Z AUTO ///// 1 1/2SM OVC017 M14/M17 A2979 RMK AO1 PRESRR SLP139
SPECI CYNL 292311Z AUTO ///// 2SM VV017 M14/M17 A2979 RMK AO1 PRESRR SLP138
SPECI CYNL 292308Z AUTO ///// 1SM VV017 M14/M17 A2978 RMK AO1 PRESRR SLP137
SPECI CYNL 292305Z AUTO ///// 1 1/2SM VV016 M14/M17 A2978 RMK AO1 PRESRR SLP136
METAR CYNL 292300Z AUTO ///// 1 1/4SM VV016 M14/M17 A2978 RMK AO1 PRESRR SLP135
SPECI CYNL 292259Z AUTO ///// 1 1/4SM VV016 M14/M17 A2978 RMK AO1 PRESRR SLP136
SPECI CYNL 292255Z AUTO ///// 1 3/4SM OVC017 M14/M17 A2978 RMK AO1 PRESRR SLP136
SPECI CYNL 292252Z AUTO ///// 2 1/2SM OVC017 M14/M17 A2977 RMK AO1 PRESRR SLP135
SPECI CYNL 292219Z AUTO ///// 6SM OVC015 M14/M17 A2976 RMK AO1 PRESRR SLP129
SPECI CYNL 292213Z AUTO ///// 3SM OVC014 M14/M17 A2975 RMK AO1 PRESRR SLP127
SPECI CYNL 292206Z AUTO ///// 6SM OVC015 M14/M17 A2974 RMK AO1 PRESRR SLP125
METAR CYNL 292200Z AUTO ///// 7SM OVC014 M14/M17 A2974 RMK AO1 PRESRR SLP125
SPECI CYNL 292153Z AUTO ///// 4SM OVC014 M14/M17 A2973 RMK AO1 PRESRR SLP123
SPECI CYNL 292110Z AUTO ///// 6SM BKN015 M13/M16 A2970 RMK AO1 PRESRR SLP109
METAR CYNL 292100Z AUTO ///// 9SM BKN014 M12/M16 A2969 RMK AO1 PRESRR SLP106
SPECI CYNL 292036Z AUTO ///// 4SM OVC013 M12/M15 A2967 RMK AO1 PRESRR SLP100
SPECI CYNL 292033Z AUTO ///// 2 1/2SM OVC013 M12/M15 A2967 RMK AO1 PRESRR SLP099
METAR CYNL 292000Z AUTO ///// 9SM OVC013 M11/M14 A2964 RMK AO1 PRESRR SLP089
METAR CYNL 291900Z AUTO ///// 7SM BKN012 M10/M13 A2961 RMK AO1 PRESRR SLP075
METAR CYNL 291800Z AUTO 29014G20KT 9SM OVC011 M08/M11 A2958 RMK AO1 PRESRR SLP065
SPECI CYNL 291744Z AUTO ///// 9SM FEW009 OVC011 M08/M10 A2957 RMK AO1 PRESRR SLP061
SPECI CYNL 291724Z AUTO ///// 9SM OVC010 M08/M10 A2957 RMK AO1 PRESRR SLP060
SPECI CYNL 291722Z AUTO ///// 9SM OVC009 M08/M10 A2957 RMK AO1 PRESRR SLP060
METAR CYNL 291700Z AUTO 28014G22KT 9SM OVC010 M06/M08 A2955 RMK AO1 PRESRR SLP051
SPECI CYNL 291654Z AUTO 29015G29KT 9SM OVC010 M06/M08 A2954 RMK AO1 PRESRR SLP049
METAR CYNL 291600Z AUTO 28019G27KT 7SM OVC009 M04/M06 A2951 RMK AO1 PRESRR SLP035
SPECI CYNL 291526Z AUTO 30013G19KT 9SM BKN009 OVC012 M03/M04 A2949 RMK AO1 SLP025
SPECI CYNL 291513Z AUTO 29011G19KT 9SM FEW008 BKN011 BKN013 M03/M04 A2947 RMK AO1 SLP021
SPECI CYNL 291511Z AUTO 29011G19KT 9SM FEW008 SCT009 BKN012 M03/M04 A2947 RMK AO1 SLP021
SPECI CYNL 291503Z AUTO 29012G18KT 9SM SCT008 OVC012 M03/M04 A2947 RMK AO1 SLP019
METAR CYNL 291500Z AUTO 28012G17KT 9SM BKN008 OVC013 M02/M04 A2947 RMK AO1 SLP018
METAR CYNL 291400Z AUTO 28009G17KT 9SM BKN008 OVC024 M02/M03 A2945 RMK AO1 SLP011
SPECI CYNL 291347Z AUTO 27005KT 9SM BKN008 OVC027 M03/M03 A2945 RMK AO1 SLP011
SPECI CYNL 291340Z AUTO 26005KT 9SM SCT008 BKN014 OVC025 M03/M03 A2945 RMK AO1 SLP011
SPECI CYNL 291336Z AUTO 26004KT 9SM SCT009 OVC026 M03/M03 A2945 RMK AO1 SLP011
SPECI CYNL 291335Z AUTO 26004KT 9SM SCT010 OVC027 M03/M03 A2944 RMK AO1 SLP010
SPECI CYNL 291333Z AUTO 26004KT 9SM SCT010 BKN014 OVC027 M03/M03 A2944 RMK AO1 SLP010
SPECI CYNL 291331Z AUTO 27005KT 8SM SCT010 BKN015 OVC028 M03/M03 A2944 RMK AO1 SLP010
SPECI CYNL 291329Z AUTO 26005KT 4SM SCT010 BKN014 BKN017 M03/M03 A2944 RMK AO1 SLP010
SPECI CYNL 291328Z AUTO 26005KT 2SM SCT010 BKN015 OVC029 M03/M04 A2944 RMK AO1 SLP010
SPECI CYNL 291326Z AUTO 26004KT 1 3/4SM VV013 M03/M04 A2945 RMK AO1 SLP011
SPECI CYNL 291325Z AUTO 26004KT 2SM VV013 M03/M04 A2945 RMK AO1 SLP011
SPECI CYNL 291324Z AUTO 27004KT 1 1/2SM SCT010 OVC015 M03/M04 A2945 RMK AO1 SLP011
SPECI CYNL 291323Z AUTO 26004KT 1 3/4SM SCT010 BKN014 OVC017 M03/M04 A2945 RMK AO1 SLP011
SPECI CYNL 291322Z AUTO 26005KT 1 3/4SM FEW008 SCT010 BKN014 M03/M04 A2945 RMK AO1 SLP011
SPECI CYNL 291320Z AUTO 26005KT 1 3/4SM SCT010 BKN014 OVC017 M03/M04 A2945 RMK AO1 SLP012
SPECI CYNL 291317Z AUTO 27005KT 2SM VV011 M03/M04 A2945 RMK AO1 SLP011
SPECI CYNL 291316Z AUTO 26005KT 1 1/2SM VV010 M03/M04 A2945 RMK AO1 SLP011
SPECI CYNL 291315Z AUTO 26005KT 1 1/4SM VV010 M03/M04 A2945 RMK AO1 SLP011
SPECI CYNL 291314Z AUTO 26005KT 1SM VV009 M03/M04 A2945 RMK AO1 SLP012
SPECI CYNL 291312Z AUTO 26006KT 1 1/4SM VV010 M03/M04 A2945 RMK AO1 SLP012
SPECI CYNL 291306Z AUTO 26004KT 1 3/4SM VV014 M03/M04 A2945 RMK AO1 SLP011
SPECI CYNL 291305Z AUTO 26004KT 1 3/4SM VV015 M04/M04 A2945 RMK AO1 SLP011
SPECI CYNL 291302Z AUTO 26004KT 2 1/2SM VV016 M04/M04 A2944 RMK AO1 SLP011
METAR CYNL 291300Z AUTO 26005KT 3SM VV015 M04/M04 A2944 RMK AO1 SLP011
SPECI CYNL 291259Z AUTO 26005KT 4SM VV015 M04/M04 A2944 RMK AO1 SLP011
SPECI CYNL 291258Z AUTO 26005KT 4SM VV014 M04/M04 A2944 RMK AO1 SLP012
SPECI CYNL 291256Z AUTO 26004KT 5SM VV015 M04/M04 A2944 RMK AO1 SLP011
SPECI CYNL 291255Z AUTO 25004KT 6SM SCT006 BKN010 OVC018 M04/M04 A2944 RMK AO1 SLP011
SPECI CYNL 291252Z AUTO 26005KT 6SM BKN006 OVC018 M04/M05 A2944 RMK AO1 SLP012
SPECI CYNL 291250Z AUTO 25005KT 5SM VV012 M04/M05 A2944 RMK AO1 SLP012
SPECI CYNL 291245Z AUTO 26005KT 3SM BKN005 OVC008 M04/M05 A2944 RMK AO1 SLP012
SPECI CYNL 291243Z AUTO 26005KT 2 1/2SM OVC005 M04/M05 A2944 RMK AO1 SLP012
METAR CYNL 291200Z AUTO 24004KT 9SM BKN007 OVC028 M06/M07 A2944 RMK AO1 SLP012
SPECI CYNL 291159Z AUTO 25004KT 9SM BKN007 OVC028 M06/M07 A2944 RMK AO1 SLP012
SPECI CYNL 291158Z AUTO 25003KT 9SM SCT007 BKN010 OVC028 M06/M07 A2944 RMK AO1 SLP012
SPECI CYNL 291157Z AUTO 25003KT 9SM BKN007 OVC028 M06/M07 A2944 RMK AO1 SLP012
SPECI CYNL 291148Z AUTO 24003KT 9SM FEW008 BKN011 OVC029 M06/M08 A2943 RMK AO1 SLP012
SPECI CYNL 291145Z AUTO 25003KT 9SM SCT010 BKN022 OVC028 M06/M08 A2944 RMK AO1 SLP013
SPECI CYNL 291142Z AUTO 24003KT 9SM SCT011 OVC028 M06/M08 A2944 RMK AO1 SLP013
SPECI CYNL 291136Z AUTO 23003KT 9SM FEW011 SCT020 OVC028 M07/M08 A2944 RMK AO1 SLP013
SPECI CYNL 291135Z AUTO 23003KT 9SM SCT011 OVC029 M07/M08 A2944 RMK AO1 SLP013
SPECI CYNL 291127Z AUTO 23003KT 9SM SCT012 BKN020 OVC029 M07/M08 A2944 RMK AO1 SLP013
SPECI CYNL 291126Z AUTO 23002KT 9SM SCT012 OVC029 M07/M08 A2944 RMK AO1 SLP013
SPECI CYNL 291123Z AUTO 23002KT 9SM FEW012 SCT020 OVC029 M07/M08 A2944 RMK AO1 SLP013
SPECI CYNL 291114Z AUTO 00000KT 9SM SCT012 BKN019 OVC029 M07/M08 A2944 RMK AO1 SLP014
METAR CYNL 291100Z AUTO 23002KT 9SM OVC012 M07/M09 A2944 RMK AO1 SLP014
SPECI CYNL 291043Z AUTO 00000KT 4SM FEW007 BKN011 OVC033 M07/M09 A2944 RMK AO1 SLP014
SPECI CYNL 291042Z AUTO 00000KT 2 1/2SM FEW007 BKN010 OVC033 M07/M09 A2944 RMK AO1 SLP014
SPECI CYNL 291041Z AUTO 22002KT 1 1/2SM FEW007 SCT010 BKN013 M07/M09 A2944 RMK AO1 SLP014
SPECI CYNL 291039Z AUTO 21003KT 1 1/2SM FEW007 BKN013 OVC033 M08/M09 A2944 RMK AO1 SLP014
SPECI CYNL 291038Z AUTO 22004KT 1 1/4SM FEW007 BKN013 OVC033 M08/M09 A2944 RMK AO1 SLP014
SPECI CYNL 291037Z AUTO 21004KT 1SM FEW007 SCT012 BKN015 M08/M09 A2944 RMK AO1 SLP014
SPECI CYNL 291035Z AUTO 21003KT 3/4SM FEW007 SCT011 OVC033 M08/M09 A2944 RMK AO1 SLP014
SPECI CYNL 291034Z AUTO 21003KT 1SM FEW007 SCT013 OVC033 M08/M09 A2944 RMK AO1 SLP014
SPECI CYNL 291033Z AUTO 21003KT 1 1/2SM FEW007 SCT013 OVC033 M08/M09 A2944 RMK AO1 SLP014
SPECI CYNL 291032Z AUTO 21002KT 2SM FEW007 SCT012 OVC033 M08/M09 A2944 RMK AO1 SLP014
SPECI CYNL 291029Z AUTO 22003KT 1 3/4SM FEW007 SCT012 OVC033 M08/M09 A2944 RMK AO1 SLP014
SPECI CYNL 291024Z AUTO 22003KT 2 1/2SM FEW007 SCT012 OVC033 M08/M09 A2944 RMK AO1 SLP014
SPECI CYNL 291014Z AUTO 22003KT 3SM FEW008 SCT011 OVC033 M08/M09 A2943 RMK AO1 SLP014
SPECI CYNL 291011Z AUTO 22002KT 2 1/2SM FEW008 SCT011 OVC033 M08/M09 A2943 RMK AO1 SLP014
SPECI CYNL 291004Z AUTO 00000KT 3SM FEW008 SCT011 BKN015 M08/M09 A2943 RMK AO1 SLP014
SPECI CYNL 291003Z AUTO 00000KT 3SM SCT008 BKN015 OVC034 M08/M09 A2944 RMK AO1 SLP014
METAR CYNL 291000Z AUTO 21002KT 2SM SCT008 BKN016 OVC033 M08/M09 A2944 RMK AO1 SLP015
SPECI CYNL 290959Z AUTO 22002KT 2SM VV008 M08/M09 A2944 RMK AO1 SLP015
SPECI CYNL 290955Z AUTO 00000KT 1 1/2SM VV009 M08/M09 A2944 RMK AO1 SLP015
SPECI CYNL 290951Z AUTO 20003KT 1 1/2SM VV011 M08/M10 A2944 RMK AO1 SLP015
SPECI CYNL 290947Z AUTO 19004KT 1 1/4SM VV013 M08/M10 A2944 RMK AO1 SLP015
SPECI CYNL 290943Z AUTO 18004KT 1 3/4SM VV014 M08/M10 A2944 RMK AO1 SLP015
SPECI CYNL 290942Z AUTO 19004KT 1 3/4SM VV015 M08/M10 A2944 RMK AO1 SLP015
SPECI CYNL 290939Z AUTO 19003KT 2SM VV016 M08/M10 A2944 RMK AO1 SLP016
SPECI CYNL 290938Z AUTO 19004KT 3SM VV016 M08/M10 A2944 RMK AO1 SLP016
SPECI CYNL 290912Z AUTO 18004KT 9SM SCT013 BKN030 OVC039 M08/M10 A2944 RMK AO1 SLP017
SPECI CYNL 290909Z AUTO 19004KT 9SM SCT014 BKN023 OVC039 M08/M10 A2944 RMK AO1 SLP017
SPECI CYNL 290905Z AUTO 18004KT 9SM BKN013 BKN039 M08/M10 A2944 RMK AO1 SLP018
SPECI CYNL 290904Z AUTO 18004KT 9SM SCT013 BKN016 BKN039 M08/M10 A2944 RMK AO1 SLP019
SPECI CYNL 290903Z AUTO 18004KT 9SM BKN013 BKN038 M08/M10 A2944 RMK AO1 SLP019
METAR CYNL 290900Z AUTO 19004KT 9SM SCT013 BKN023 BKN038 M09/M10 A2944 RMK AO1 SLP019
SPECI CYNL 290858Z AUTO 19004KT 9SM SCT013 BKN023 BKN039 M09/M10 A2944 RMK AO1 SLP020
SPECI CYNL 290843Z AUTO 19003KT 9SM SCT014 BKN040 M09/M10 A2944 RMK AO1 SLP019
SPECI CYNL 290837Z AUTO 19004KT 9SM VV013 M09/M10 A2945 RMK AO1 SLP021
SPECI CYNL 290820Z AUTO 19005KT 9SM FEW011 SCT025 M09/M11 A2945 RMK AO1 SLP021
SPECI CYNL 290817Z AUTO 18005KT 7SM FEW009 BKN025 M09/M10 A2945 RMK AO1 SLP021
SPECI CYNL 290815Z AUTO 18005KT 5SM FEW011 BKN025 M09/M11 A2945 RMK AO1 SLP021
SPECI CYNL 290806Z AUTO 18005KT 4SM FEW008 SCT011 OVC026 M09/M11 A2945 RMK AO1 SLP023
SPECI CYNL 290805Z AUTO 18006KT 5SM SCT008 BKN018 OVC026 M09/M11 A2945 RMK AO1 SLP023
METAR CYNL 290800Z AUTO 19005KT 3SM SCT009 BKN011 OVC027 M09/M11 A2946 RMK AO1 SLP024
SPECI CYNL 290758Z AUTO 19005KT 2SM SCT009 BKN011 OVC027 M09/M11 A2945 RMK AO1 SLP024
SPECI CYNL 290755Z AUTO 18006KT 1 1/2SM VV011 M09/M11 A2945 RMK AO1 SLP024
SPECI CYNL 290750Z AUTO 18005KT 1 1/4SM VV013 M09/M11 A2946 RMK AO1 SLP025
SPECI CYNL 290749Z AUTO 18005KT 1 1/4SM BKN009 BKN010 OVC018 M09/M11 A2946 RMK AO1 SLP025
SPECI CYNL 290748Z AUTO 18006KT 1 3/4SM BKN009 BKN010 OVC018 M09/M11 A2946 RMK AO1 SLP025
SPECI CYNL 290739Z AUTO 18006KT 9SM BKN009 OVC011 M09/M11 A2946 RMK AO1 SLP025
METAR CYNL 290700Z AUTO 18006KT 9SM OVC012 M09/M11 A2947 RMK AO1 SLP030
SPECI CYNL 290632Z AUTO 17006KT 7SM BKN014 BKN017 OVC030 M09/M11 A2948 RMK AO1 PRESFR SLP034
SPECI CYNL 290620Z AUTO 17006KT 3SM FEW008 BKN016 OVC030 M09/M11 A2948 RMK AO1 PRESFR SLP035
SPECI CYNL 290616Z AUTO 17007KT 2SM FEW008 BKN017 OVC030 M09/M11 A2948 RMK AO1 PRESFR SLP035
SPECI CYNL 290613Z AUTO 17006KT 2SM FEW008 SCT010 BKN017 M09/M11 A2948 RMK AO1 PRESFR SLP035
SPECI CYNL 290610Z AUTO 17007KT 1 1/2SM FEW008 SCT010 BKN017 M09/M11 A2948 RMK AO1 PRESFR SLP036
SPECI CYNL 290609Z AUTO 17009KT 1 1/2SM FEW008 BKN010 BKN017 M09/M11 A2948 RMK AO1 PRESFR SLP036
SPECI CYNL 290605Z AUTO 16008KT 1SM FEW008 BKN010 OVC017 M09/M11 A2948 RMK AO1 PRESFR SLP036
SPECI CYNL 290602Z AUTO 17009KT 3/4SM FEW008 BKN010 OVC017 M09/M11 A2949 RMK AO1 PRESFR SLP036
METAR CYNL 290600Z AUTO 17008KT 1SM FEW008 BKN010 OVC017 M09/M11 A2949 RMK AO1 PRESFR SLP036
SPECI CYNL 290559Z AUTO 17008KT 1 1/4SM BKN010 OVC016 M09/M11 A2949 RMK AO1 PRESFR SLP037
SPECI CYNL 290557Z AUTO 17008KT 1 3/4SM BKN010 OVC016 M09/M11 A2949 RMK AO1 SLP039
SPECI CYNL 290556Z AUTO 17008KT 2SM BKN010 OVC016 M09/M11 A2949 RMK AO1 SLP039
SPECI CYNL 290545Z AUTO 16009KT 9SM BKN011 OVC016 M09/M12 A2949 RMK AO1 SLP041
SPECI CYNL 290537Z AUTO 16008KT 3SM FEW012 BKN016 OVC021 M09/M12 A2950 RMK AO1 SLP041
SPECI CYNL 290531Z AUTO 16008KT 2SM VV015 M09/M12 A2950 RMK AO1 SLP042
SPECI CYNL 290527Z AUTO 16008KT 1 1/2SM VV016 M09/M12 A2950 RMK AO1 SLP042
SPECI CYNL 290508Z AUTO 17008KT 2SM VV015 M09/M12 A2951 RMK AO1 SLP045
METAR CYNL 290500Z AUTO 17010KT 1 1/2SM VV011 M09/M12 A2951 RMK AO1 SLP047
SPECI CYNL 290454Z AUTO 16008KT 1SM VV013 M09/M11 A2951 RMK AO1 SLP049
SPECI CYNL 290453Z AUTO 16009KT 3/4SM VV013 M09/M11 A2951 RMK AO1 SLP049
SPECI CYNL 290449Z AUTO 16008KT 5/8SM VV010 M09/M11 A2952 RMK AO1 SLP050
SPECI CYNL 290448Z AUTO 17008KT 3/4SM VV010 M09/M11 A2952 RMK AO1 SLP050
SPECI CYNL 290446Z AUTO 17009KT 5/8SM VV010 M09/M11 A2952 RMK AO1 SLP050
SPECI CYNL 290432Z AUTO 16008KT 3/8SM VV009 M09/M11 A2952 RMK AO1 SLP051
SPECI CYNL 290431Z AUTO 16008KT 1/2SM VV010 M09/M11 A2952 RMK AO1 SLP051
SPECI CYNL 290421Z AUTO 16009KT 3/8SM VV009 M09/M11 A2952 RMK AO1 SLP051
SPECI CYNL 290412Z AUTO 16009KT 1/2SM VV014 M09/M11 A2952 RMK AO1 SLP052
SPECI CYNL 290411Z AUTO 17010KT 5/8SM VV016 M09/M11 A2952 RMK AO1 SLP052
SPECI CYNL 290409Z AUTO 17009KT 1 1/4SM VV018 M09/M11 A2952 RMK AO1 SLP052
SPECI CYNL 290408Z AUTO 16008KT 1 1/2SM VV018 M09/M11 A2952 RMK AO1 SLP052
SPECI CYNL 290406Z AUTO 16008KT 2SM VV018 M09/M11 A2952 RMK AO1 SLP052
SPECI CYNL 290405Z AUTO 16009KT 1 3/4SM VV017 M09/M11 A2952 RMK AO1 SLP051
SPECI CYNL 290403Z AUTO 16007KT 1SM VV015 M09/M11 A2952 RMK AO1 SLP051
METAR CYNL 290400Z AUTO 16009KT 1SM VV013 M09/M11 A2952 RMK AO1 SLP052
SPECI CYNL 290357Z AUTO 16008KT 1SM VV012 M09/M11 A2952 RMK AO1 PRESFR SLP054
SPECI CYNL 290356Z AUTO 16008KT 3/4SM VV012 M09/M11 A2952 RMK AO1 PRESFR SLP054
SPECI CYNL 290351Z AUTO 15008KT 5/8SM VV012 M09/M11 A2953 RMK AO1 PRESFR SLP055
SPECI CYNL 290349Z AUTO 15007KT 3/4SM VV013 M09/M11 A2953 RMK AO1 PRESFR SLP056
SPECI CYNL 290332Z AUTO 16009KT 1SM VV011 M09/M11 A2953 RMK AO1 PRESFR SLP057
SPECI CYNL 290329Z AUTO 16007KT 3/4SM VV011 M09/M11 A2953 RMK AO1 PRESFR SLP057
SPECI CYNL 290327Z AUTO 17007KT 5/8SM VV010 M09/M11 A2953 RMK AO1 PRESFR SLP058
SPECI CYNL 290326Z AUTO 16008KT 3/4SM VV010 M09/M11 A2953 RMK AO1 PRESFR SLP058
SPECI CYNL 290323Z AUTO 16008KT 3/4SM VV009 M09/M11 A2954 RMK AO1 PRESFR SLP058
SPECI CYNL 290322Z AUTO 16009KT 5/8SM VV009 M09/M11 A2954 RMK AO1 PRESFR SLP058
SPECI CYNL 290319Z AUTO 16009KT 5/8SM VV011 M09/M11 A2953 RMK AO1 PRESFR SLP058
SPECI CYNL 290318Z AUTO 17010KT 3/4SM VV011 M09/M11 A2954 RMK AO1 PRESFR SLP058
SPECI CYNL 290316Z AUTO 16008KT 1 1/4SM VV013 M09/M11 A2954 RMK AO1 PRESFR SLP058
SPECI CYNL 290313Z AUTO 15009KT 1 3/4SM VV013 M09/M11 A2954 RMK AO1 PRESFR SLP058
SPECI CYNL 290312Z AUTO 15010KT 2SM VV013 M09/M11 A2954 RMK AO1 PRESFR SLP058
METAR CYNL 290300Z AUTO 16010KT 9SM OVC010 M09/M11 A2954 RMK AO1 PRESFR SLP060
SPECI CYNL 290203Z AUTO 16014KT 9SM BKN014 OVC019 M09/M12 A2957 RMK AO1 PRESFR SLP073
METAR CYNL 290200Z AUTO 16012G18KT 9SM BKN016 OVC021 M09/M11 A2957 RMK AO1 PRESFR SLP073
SPECI CYNL 290138Z AUTO 16011G19KT 3SM OVC023 M09/M11 A2958 RMK AO1 PRESFR SLP077
SPECI CYNL 290134Z AUTO 15013G19KT 2SM OVC024 M09/M11 A2958 RMK AO1 PRESFR SLP077
SPECI CYNL 290133Z AUTO 16011G19KT 1 3/4SM OVC024 M09/M11 A2958 RMK AO1 PRESFR SLP077
SPECI CYNL 290132Z AUTO 16012G19KT 1 3/4SM OVC025 M09/M11 A2958 RMK AO1 PRESFR SLP077
SPECI CYNL 290129Z AUTO 16014G19KT 2 1/2SM FEW013 OVC025 M09/M11 A2958 RMK AO1 PRESFR SLP076
SPECI CYNL 290122Z AUTO 15014KT 8SM FEW008 OVC026 M09/M12 A2958 RMK AO1 PRESFR SLP077
SPECI CYNL 290117Z AUTO 15013G18KT 9SM FEW009 SCT013 OVC027 M09/M12 A2959 RMK AO1 PRESFR SLP080
SPECI CYNL 290114Z AUTO 15012G17KT 5SM SCT009 OVC027 M09/M12 A2959 RMK AO1 PRESFR SLP080
SPECI CYNL 290113Z AUTO 15013KT 4SM SCT009 BKN013 OVC027 M09/M12 A2959 RMK AO1 PRESFR SLP080
SPECI CYNL 290111Z AUTO 15010G16KT 2SM SCT009 BKN013 OVC027 M09/M12 A2959 RMK AO1 PRESFR SLP081
SPECI CYNL 290108Z AUTO 14011KT 1 1/2SM SCT009 BKN012 OVC027 M10/M12 A2959 RMK AO1 PRESFR SLP082
SPECI CYNL 290107Z AUTO 15009KT 1 1/4SM SCT009 BKN012 OVC027 M10/M12 A2959 RMK AO1 PRESFR SLP082
SPECI CYNL 290105Z AUTO 15007KT 1 1/4SM VV012 M10/M12 A2960 RMK AO1 PRESFR SLP083
SPECI CYNL 290103Z AUTO 15009KT 1 1/2SM VV012 M10/M12 A2960 RMK AO1 PRESFR SLP083
SPECI CYNL 290101Z AUTO 15011KT 1SM VV010 M10/M12 A2960 RMK AO1 PRESFR SLP083
METAR CYNL 290100Z AUTO 15011KT 5/8SM VV009 M10/M12 A2960 RMK AO1 PRESFR SLP083
SPECI CYNL 290054Z AUTO 15010KT 3/8SM VV009 M10/M12 A2960 RMK AO1 PRESFR SLP085
SPECI CYNL 290041Z AUTO 15009KT 5/8SM VV010 M10/M12 A2961 RMK AO1 PRESFR SLP088
SPECI CYNL 290033Z AUTO 15011KT 5/8SM VV009 M10/M12 A2961 RMK AO1 PRESFR SLP089
SPECI CYNL 290027Z AUTO 15010G15KT 3/4SM VV009 M10/M12 A2961 RMK AO1 PRESFR SLP089
SPECI CYNL 290023Z AUTO 14011KT 3/4SM VV010 M10/M12 A2961 RMK AO1 PRESFR SLP089
SPECI CYNL 290022Z AUTO 14011KT 1SM VV010 M10/M12 A2961 RMK AO1 PRESFR SLP089
SPECI CYNL 290018Z AUTO 14010KT 3/4SM VV010 M10/M12 A2961 RMK AO1 PRESFR SLP089
SPECI CYNL 290017Z AUTO 14011KT 5/8SM VV010 M10/M12 A2961 RMK AO1 PRESFR SLP089
SPECI CYNL 290015Z AUTO 15011KT 3/4SM VV010 M10/M12 A2961 RMK AO1 PRESFR SLP090
SPECI CYNL 290013Z AUTO 14009KT 1SM VV010 M10/M12 A2962 RMK AO1 PRESFR SLP091
SPECI CYNL 290010Z AUTO 15011KT 3/4SM VV010 M10/M12 A2962 RMK AO1 PRESFR SLP092
SPECI CYNL 290004Z AUTO 15009G16KT 5/8SM VV010 M10/M12 A2962 RMK AO1 PRESFR SLP093
SPECI CYNL 290003Z AUTO 14009G16KT 3/4SM VV010 M10/M12 A2962 RMK AO1 PRESFR SLP093
METAR CYNL 290000Z AUTO 14008G16KT 1SM VV010 M10/M12 A2962 RMK AO1 PRESFR SLP093
SPECI CYNL 282340Z AUTO 14011G17KT 1 1/4SM VV011 M10/M13 A2964 RMK AO1 PRESFR SLP100
SPECI CYNL 282337Z AUTO 14010G17KT 1 3/4SM VV013 M10/M13 A2964 RMK AO1 PRESFR SLP101
SPECI CYNL 282330Z AUTO 14011G16KT 1 1/2SM VV016 M10/M13 A2965 RMK AO1 PRESFR SLP103
SPECI CYNL 282327Z AUTO 14010G17KT 1SM VV015 M10/M13 A2965 RMK AO1 PRESFR SLP103
SPECI CYNL 282322Z AUTO 15010G17KT 1SM VV014 M10/M13 A2965 RMK AO1 PRESFR SLP104
SPECI CYNL 282318Z AUTO 14012G17KT 1 1/4SM VV019 M11/M13 A2965 RMK AO1 PRESFR SLP105
SPECI CYNL 282314Z AUTO 14012KT 1 3/4SM VV023 M11/M13 A2965 RMK AO1 PRESFR SLP106
SPECI CYNL 282307Z AUTO 14011KT 2 1/2SM VV016 M11/M13 A2965 RMK AO1 PRESFR SLP106
METAR CYNL 282300Z AUTO 13010KT 7SM VV017 M11/M13 A2966 RMK AO1 PRESFR SLP107
SPECI CYNL 282258Z AUTO 14011KT 6SM VV016 M11/M13 A2966 RMK AO1 PRESFR SLP109
SPECI CYNL 282253Z AUTO 14009KT 5SM VV010 M11/M13 A2966 RMK AO1 PRESFR SLP110
SPECI CYNL 282252Z AUTO 14007KT 4SM VV009 M11/M13 A2966 RMK AO1 PRESFR SLP110
SPECI CYNL 282250Z AUTO 14009KT 4SM VV012 M11/M13 A2966 RMK AO1 PRESFR SLP110
SPECI CYNL 282248Z AUTO 14009KT 3SM VV016 M11/M13 A2966 RMK AO1 PRESFR SLP111
SPECI CYNL 282245Z AUTO 14009KT 2SM VV019 M11/M13 A2967 RMK AO1 PRESFR SLP111
SPECI CYNL 282242Z AUTO 14008KT 1 1/2SM VV016 M11/M13 A2967 RMK AO1 PRESFR SLP111
SPECI CYNL 282241Z AUTO 14008KT 1 1/2SM VV014 M11/M13 A2967 RMK AO1 PRESFR SLP111
SPECI CYNL 282239Z AUTO 14008G15KT 1SM VV010 M11/M13 A2967 RMK AO1 PRESFR SLP112
SPECI CYNL 282238Z AUTO 14007G15KT 3/4SM VV009 M11/M13 A2967 RMK AO1 PRESFR SLP112
METAR CYNL 282200Z AUTO 14010G16KT 5/8SM VV008 M11/M13 A2969 RMK AO1 PRESFR SLP119
SPECI CYNL 282158Z AUTO 14010G16KT 5/8SM VV009 M11/M13 A2969 RMK AO1 PRESFR SLP118
SPECI CYNL 282155Z AUTO 14008G16KT 3/4SM VV011 M11/M13 A2969 RMK AO1 PRESFR SLP119
SPECI CYNL 282151Z AUTO 14010G16KT 1 1/4SM VV012 M11/M13 A2969 RMK AO1 PRESFR SLP120
SPECI CYNL 282149Z AUTO 14010G15KT 1 1/2SM VV011 M11/M14 A2969 RMK AO1 PRESFR SLP120
SPECI CYNL 282148Z AUTO 14010G15KT 1 1/4SM VV010 M11/M13 A2969 RMK AO1 PRESFR SLP120
SPECI CYNL 282141Z AUTO 14010G16KT 1SM VV009 M11/M14 A2970 RMK AO1 PRESFR SLP121
SPECI CYNL 282135Z AUTO 14010G16KT 1SM VV010 M11/M14 A2970 RMK AO1 PRESFR SLP123
SPECI CYNL 282132Z AUTO 15009G15KT 1SM VV009 M11/M14 A2971 RMK AO1 PRESFR SLP125
SPECI CYNL 282129Z AUTO 14012KT 3/4SM VV008 M11/M14 A2971 RMK AO1 PRESFR SLP126
SPECI CYNL 282111Z AUTO 14010G21KT 1/2SM VV009 M12/M14 A2972 RMK AO1 PRESFR SLP130
SPECI CYNL 282107Z AUTO 14010G21KT 5/8SM VV011 M12/M14 A2972 RMK AO1 PRESFR SLP130
SPECI CYNL 282104Z AUTO 14011G21KT 3/4SM VV011 M12/M14 A2972 RMK AO1 PRESFR SLP130
METAR CYNL 282100Z AUTO 14011G17KT 1SM VV012 M12/M14 A2973 RMK AO1 PRESFR SLP131
SPECI CYNL 282049Z AUTO 15010KT 1SM VV012 M12/M14 A2973 RMK AO1 PRESFR SLP131
SPECI CYNL 282048Z AUTO 15009KT 3/4SM VV012 M12/M14 A2973 RMK AO1 PRESFR SLP131
SPECI CYNL 282028Z AUTO 15011G17KT 1 1/4SM VV014 M12/M15 A2975 RMK AO1 PRESFR SLP137
SPECI CYNL 282026Z AUTO 15011G17KT 1 3/4SM VV014 M12/M15 A2975 RMK AO1 PRESFR SLP138
SPECI CYNL 282025Z AUTO 16010KT 2SM FEW014 M12/M15 A2975 RMK AO1 PRESFR SLP139
METAR CYNL 282000Z AUTO 15010KT 9SM CLR M12/M15 A2977 RMK AO1 PRESFR SLP145
METAR CYNL 281900Z AUTO 15010KT 9SM FEW042 M13/M15 A2981 RMK AO1 PRESFR SLP160
METAR CYNL 281800Z AUTO 15008KT 9SM CLR M14/M17 A2985 RMK AO1 PRESFR SLP172
METAR CYNL 281700Z AUTO 17006KT 9SM FEW068 M15/M18 A2988 RMK AO1 SLP181
METAR CYNL 281600Z AUTO 16006KT 9SM FEW100 M17/M19 A2989 RMK AO1 SLP187
METAR CYNL 281500Z AUTO 16004KT 9SM CLR M19/M22 A2990 RMK AO1 SLP193
METAR CYNL 281400Z AUTO 12003KT 9SM CLR M20/M23 A2992 RMK AO1 PRESFR SLP200
METAR CYNL 281300Z AUTO 16003KT 9SM CLR M20/M22 A2994 RMK AO1 SLP208
METAR CYNL 281200Z AUTO 19002KT 9SM CLR M21/M24 A2995 RMK AO1 SLP214
METAR CYNL 281100Z AUTO 12002KT 9SM CLR M22/M25 A2997 RMK AO1 SLP219
METAR CYNL 281000Z AUTO 18003KT 9SM CLR M21/M24 A2997 RMK AO1 SLP219
SPECI CYNL 280916Z AUTO 16002KT 4SM CLR M19/M22 A2999 RMK AO1 SLP220
SPECI CYNL 280915Z AUTO 16002KT 1 1/2SM CLR M19/M22 A2999 RMK AO1 SLP220
SPECI CYNL 280912Z AUTO 16003KT 3/4SM CLR M19/M22 A2999 RMK AO1 SLP220
SPECI CYNL 280909Z AUTO 16002KT 5/8SM CLR M19/M22 A2999 RMK AO1 SLP221
SPECI CYNL 280908Z AUTO 16002KT 3/4SM FEW001 M19/M22 A2999 RMK AO1 SLP221
SPECI CYNL 280907Z AUTO 00000KT 1SM FEW001 M19/M22 A2999 RMK AO1 SLP221
SPECI CYNL 280906Z AUTO 00000KT 3/4SM FEW001 M19/M21 A2999 RMK AO1 SLP221
METAR CYNL 280900Z AUTO 17002KT 3/8SM FEW001 M19/M21 A2999 RMK AO1 SLP221
SPECI CYNL 280857Z AUTO 00000KT 1/4SM SCT001 M18/M21 A2999 RMK AO1 SLP220
SPECI CYNL 280850Z AUTO 00000KT 1/8SM SCT001 M18/M21 A2999 RMK AO1 SLP220
SPECI CYNL 280842Z AUTO 00000KT 1/8SM VV001 M18/M21 A2999 RMK AO1 SLP220
SPECI CYNL 280839Z AUTO 00000KT 1/4SM VV001 M18/M21 A2999 RMK AO1 SLP221
SPECI CYNL 280813Z AUTO ///// 1/8SM VV002 M18/M21 A2999 RMK AO1 SLP221
SPECI CYNL 280810Z AUTO ///// 1/4SM VV001 M18/M21 A2999 RMK AO1 SLP220
METAR CYNL 280800Z AUTO 00000KT 1/8SM VV001 M18/M21 A2999 RMK AO1 SLP222
SPECI CYNL 280759Z AUTO 00000KT 1/4SM VV001 M18/M21 A3000 RMK AO1 SLP221
SPECI CYNL 280742Z AUTO 00000KT 9SM VV002 M19/M22 A2999 RMK AO1 PRESFR SLP221
SPECI CYNL 280740Z AUTO 00000KT 9SM VV003 M19/M21 A2999 RMK AO1 PRESFR SLP221
SPECI CYNL 280732Z AUTO 00000KT 9SM VV002 M19/M21 A2999 RMK AO1 PRESFR SLP221
METAR CYNL 280700Z AUTO 00000KT 9SM OVC004 M17/M20 A3000 RMK AO1 PRESFR SLP220
SPECI CYNL 280616Z AUTO 27002KT 9SM BKN003 OVC006 M16/M18 A3002 RMK AO1 SLP225
SPECI CYNL 280613Z AUTO 26003KT 9SM SCT003 BKN005 OVC006 M16/M18 A3002 RMK AO1 SLP225
SPECI CYNL 280612Z AUTO 27003KT 9SM BKN004 OVC006 M16/M18 A3002 RMK AO1 SLP225
METAR CYNL 280600Z AUTO 25005KT 9SM BKN006 M16/M18 A3002 RMK AO1 SLP225
SPECI CYNL 280555Z AUTO 24004KT 9SM BKN006 M16/M18 A3002 RMK AO1 SLP224
SPECI CYNL 280525Z AUTO 26002KT 9SM SCT006 M15/M17 A3001 RMK AO1 SLP220
METAR CYNL 280500Z AUTO 29002KT 9SM OVC007 M14/M16 A3002 RMK AO1 SLP222
METAR CYNL 280400Z AUTO 28005KT 9SM OVC006 M14/M17 A3001 RMK AO1 SLP220
METAR CYNL 280300Z AUTO 28006KT 9SM OVC007 M15/M17 A3001 RMK AO1 SLP219
SPECI CYNL 280204Z AUTO 29004KT 9SM SCT002 BKN005 OVC007 M15/M17 A3000 RMK AO1 SLP214
METAR CYNL 280200Z AUTO 28005KT 9SM BKN002 OVC008 M14/M17 A3000 RMK AO1 SLP215
SPECI CYNL 280147Z AUTO 29005KT 8SM BKN002 OVC004 M14/M17 A3001 RMK AO1 SLP217
SPECI CYNL 280118Z AUTO 30007KT 8SM BKN003 BKN005 OVC010 M14/M17 A3001 RMK AO1 SLP216
SPECI CYNL 280110Z AUTO 28006KT 4SM OVC002 M14/M17 A3000 RMK AO1 SLP215
SPECI CYNL 280108Z AUTO 29006KT 2 1/2SM OVC002 M14/M17 A3000 RMK AO1 SLP215
SPECI CYNL 280106Z AUTO 29005KT 2SM BKN003 OVC008 M14/M17 A3000 RMK AO1 SLP215
SPECI CYNL 280102Z AUTO 30005KT 9SM BKN003 OVC008 M14/M17 A3000 RMK AO1 SLP215
METAR CYNL 280100Z AUTO 30006KT 9SM BKN002 OVC008 M14/M17 A3000 RMK AO1 SLP214
SPECI CYNL 280053Z AUTO 31007KT 6SM BKN002 OVC008 M14/M17 A3000 RMK AO1 SLP213
SPECI CYNL 280046Z AUTO 30006KT 8SM SCT003 OVC008 M14/M17 A3000 RMK AO1 SLP212
SPECI CYNL 280045Z AUTO 30007KT 9SM FEW003 SCT005 OVC008 M14/M17 A3000 RMK AO1 SLP213
SPECI CYNL 280026Z AUTO 28007KT 9SM FEW003 OVC009 M14/M16 A3000 RMK AO1 SLP212
SPECI CYNL 280008Z AUTO 30003KT 9SM FEW003 SCT006 OVC010 M14/M16 A2998 RMK AO1 SLP207
SPECI CYNL 280005Z AUTO 30004KT 8SM SCT003 OVC010 M14/M16 A2998 RMK AO1 SLP207
SPECI CYNL 280003Z AUTO 31004KT 6SM FEW003 SCT007 OVC010 M14/M16 A2999 RMK AO1 SLP208
METAR CYNL 280000Z AUTO 30004KT 4SM FEW004 OVC010 M14/M16 A2999 RMK AO1 SLP208
SPECI CYNL 272356Z AUTO 30005KT 7SM FEW004 OVC010 M14/M16 A2999 RMK AO1 PRESRR SLP207
METAR CYNL 272300Z AUTO 31006KT 9SM OVC010 M13/M16 A2998 RMK AO1 PRESRR SLP203
METAR CYNL 272200Z AUTO 30011G17KT 9SM OVC011 M13/M16 A2995 RMK AO1 PRESRR SLP192
METAR CYNL 272100Z AUTO 30012G17KT 9SM OVC013 M12/M15 A2992 RMK AO1 PRESRR SLP182
SPECI CYNL 272027Z AUTO 31009G15KT 6SM FEW006 OVC013 M12/M15 A2989 RMK AO1 PRESRR SLP172
METAR CYNL 272000Z AUTO 30012G20KT 8SM OVC013 M11/M14 A2988 RMK AO1 PRESRR SLP167
METAR CYNL 271900Z AUTO 31010G15KT 5SM OVC014 M10/M13 A2985 RMK AO1 PRESRR SLP153
SPECI CYNL 271857Z AUTO ///// 5SM BKN014 OVC018 M10/M13 A2985 RMK AO1 PRESRR SLP153
SPECI CYNL 271848Z AUTO ///// 5SM VV015 M10/M13 A2984 RMK AO1 PRESRR SLP152
SPECI CYNL 271847Z AUTO 31011G18KT 3SM VV014 M10/M13 A2985 RMK AO1 PRESRR SLP152
SPECI CYNL 271846Z AUTO 30012G18KT 2SM VV014 M10/M13 A2985 RMK AO1 PRESRR SLP151
SPECI CYNL 271844Z AUTO 31008G18KT 1 1/2SM VV014 M10/M13 A2984 RMK AO1 PRESRR SLP151
SPECI CYNL 271839Z AUTO 30009G16KT 1 1/4SM VV014 M10/M12 A2983 RMK AO1 PRESRR SLP148
SPECI CYNL 271834Z AUTO 30007KT 1 3/4SM OVC014 M10/M12 A2983 RMK AO1 PRESRR SLP147
SPECI CYNL 271833Z AUTO 30009KT 2SM OVC014 M10/M12 A2983 RMK AO1 PRESRR SLP147
SPECI CYNL 271827Z AUTO 29008KT 3SM OVC014 M10/M12 A2983 RMK AO1 PRESRR SLP146
SPECI CYNL 271825Z AUTO 30008KT 2 1/2SM OVC014 M10/M13 A2983 RMK AO1 PRESRR SLP146
METAR CYNL 271800Z AUTO 29009G18KT 7SM OVC012 M10/M13 A2982 RMK AO1 PRESRR SLP143
METAR CYNL 271700Z AUTO 29009G17KT 9SM OVC011 M10/M12 A2980 RMK AO1 PRESRR SLP134
METAR CYNL 271600Z AUTO ///// 9SM OVC011 M09/M12 A2977 RMK AO1 PRESRR SLP125
METAR CYNL 271500Z AUTO 28010G19KT 9SM OVC011 M09/M11 A2974 RMK AO1 PRESRR SLP113
METAR CYNL 271400Z AUTO 29009G18KT 9SM OVC011 M08/M11 A2972 RMK AO1 PRESRR SLP107
METAR CYNL 271300Z AUTO 28011G20KT 9SM OVC013 M08/M10 A2969 RMK AO1 PRESRR SLP100
SPECI CYNL 271109Z AUTO 29016G25KT 9SM OVC010 M06/M09 A2965 RMK AO1 PRESRR SLP083
METAR CYNL 271100Z AUTO 28014G23KT 9SM OVC009 M06/M08 A2964 RMK AO1 PRESRR SLP081
SPECI CYNL 271029Z AUTO 28013G21KT 9SM BKN009 OVC011 M06/M08 A2963 RMK AO1 SLP075
SPECI CYNL 271025Z AUTO 28015G20KT 9SM SCT009 OVC011 M06/M08 A2963 RMK AO1 SLP075
METAR CYNL 271000Z AUTO 29013G21KT 9SM OVC010 M06/M08 A2962 RMK AO1 SLP072
SPECI CYNL 270918Z AUTO 29009G20KT 9SM BKN014 OVC018 M06/M08 A2961 RMK AO1 PRESRR SLP068
SPECI CYNL 270917Z AUTO 29010G20KT 9SM BKN015 OVC019 M06/M08 A2961 RMK AO1 PRESRR SLP068
SPECI CYNL 270914Z AUTO 29014G20KT 9SM BKN014 OVC019 M06/M08 A2961 RMK AO1 PRESRR SLP068
SPECI CYNL 270911Z AUTO 29014G20KT 9SM SCT013 OVC018 M06/M08 A2960 RMK AO1 PRESRR SLP068
SPECI CYNL 270902Z AUTO 29010G18KT 9SM BKN014 OVC018 M06/M08 A2960 RMK AO1 PRESRR SLP067
METAR CYNL 270900Z AUTO 29011G18KT 9SM SCT014 OVC019 M06/M08 A2960 RMK AO1 PRESRR SLP067
SPECI CYNL 270854Z AUTO 30010G19KT 9SM SCT015 OVC019 M06/M08 A2960 RMK AO1 SLP066
SPECI CYNL 270853Z AUTO 29009G19KT 9SM BKN014 OVC019 M06/M08 A2960 RMK AO1 SLP066
SPECI CYNL 270852Z AUTO 29012G19KT 9SM SCT014 OVC018 M06/M08 A2960 RMK AO1 SLP066
SPECI CYNL 270851Z AUTO 29013G19KT 9SM FEW012 SCT014 OVC018 M06/M08 A2960 RMK AO1 SLP066
SPECI CYNL 270849Z AUTO 29012G20KT 9SM FEW012 BKN016 OVC021 M06/M08 A2960 RMK AO1 SLP065
SPECI CYNL 270805Z AUTO 28014G21KT 9SM SCT008 BKN010 OVC013 M05/M07 A2957 RMK AO1 SLP056
METAR CYNL 270800Z AUTO 27010G18KT 9SM BKN008 OVC011 M05/M07 A2957 RMK AO1 SLP056
METAR CYNL 270700Z AUTO 27012G21KT 9SM OVC008 M05/M06 A2956 RMK AO1 PRESRR SLP052
SPECI CYNL 270644Z AUTO 28013G20KT 9SM BKN008 OVC011 M05/M06 A2955 RMK AO1 PRESRR SLP049
SPECI CYNL 270635Z AUTO 28010KT 9SM FEW009 BKN011 OVC013 M05/M06 A2955 RMK AO1 PRESRR SLP047
METAR CYNL 270600Z AUTO 28010G16KT 9SM OVC011 M05/M06 A2953 RMK AO1 PRESRR SLP041
METAR CYNL 270500Z AUTO 28013G21KT 9SM OVC011 M04/M05 A2951 RMK AO1 PRESRR SLP035
SPECI CYNL 270403Z AUTO 27008KT 9SM BKN014 OVC017 M04/M04 A2948 RMK AO1 SLP025
METAR CYNL 270400Z AUTO 27008KT 9SM OVC015 M04/M04 A2948 RMK AO1 SLP025
SPECI CYNL 270337Z AUTO 25006KT 9SM OVC015 M06/M07 A2948 RMK AO1 SLP026
SPECI CYNL 270309Z AUTO 22003KT 9SM SCT009 OVC012 M06/M07 A2947 RMK AO1 SLP024
METAR CYNL 270300Z AUTO 23003KT 9SM OVC009 M06/M07 A2947 RMK AO1 SLP024
SPECI CYNL 270240Z AUTO 20003KT 4SM BKN009 BKN016 OVC020 M07/M08 A2947 RMK AO1 SLP023
SPECI CYNL 270233Z AUTO 20004KT 4SM FEW009 BKN011 BKN016 M07/M08 A2946 RMK AO1 SLP023
SPECI CYNL 270232Z AUTO 20004KT 2SM FEW009 BKN012 BKN016 M07/M08 A2946 RMK AO1 SLP023
SPECI CYNL 270231Z AUTO 20004KT 1 1/2SM FEW009 BKN011 BKN016 M07/M08 A2946 RMK AO1 SLP023
SPECI CYNL 270229Z AUTO 20004KT 1SM FEW009 BKN012 BKN016 M07/M08 A2946 RMK AO1 SLP023
SPECI CYNL 270226Z AUTO 19004KT 3/4SM VV013 M07/M08 A2946 RMK AO1 SLP023
SPECI CYNL 270224Z AUTO 19004KT 1 1/4SM VV014 M07/M08 A2946 RMK AO1 SLP023
SPECI CYNL 270223Z AUTO 19004KT 1 1/2SM VV016 M07/M08 A2946 RMK AO1 SLP023
SPECI CYNL 270221Z AUTO 19004KT 2 1/2SM VV018 M07/M08 A2946 RMK AO1 SLP023
SPECI CYNL 270220Z AUTO 19004KT 2 1/2SM FEW008 BKN012 OVC020 M07/M08 A2946 RMK AO1 SLP023
SPECI CYNL 270217Z AUTO 20003KT 3SM SCT008 BKN012 OVC020 M07/M08 A2946 RMK AO1 SLP023
SPECI CYNL 270215Z AUTO 20004KT 2SM SCT009 BKN012 OVC020 M07/M08 A2946 RMK AO1 SLP023
SPECI CYNL 270213Z AUTO 19004KT 2SM VV013 M07/M08 A2946 RMK AO1 SLP023
SPECI CYNL 270212Z AUTO 19004KT 1 3/4SM VV013 M07/M08 A2946 RMK AO1 SLP023
SPECI CYNL 270209Z AUTO 19004KT 1 1/4SM VV012 M07/M08 A2946 RMK AO1 SLP023
SPECI CYNL 270208Z AUTO 19004KT 1 1/2SM BKN009 OVC011 M07/M08 A2946 RMK AO1 SLP023
SPECI CYNL 270206Z AUTO 19005KT 2 1/2SM BKN009 OVC011 M07/M08 A2946 RMK AO1 SLP023
METAR CYNL 270200Z AUTO 19004KT 8SM OVC009 M07/M08 A2946 RMK AO1 SLP023
SPECI CYNL 270136Z AUTO 17005KT 9SM BKN009 BKN012 OVC016 M07/M09 A2946 RMK AO1 SLP024
SPECI CYNL 270118Z AUTO 16004KT 3SM BKN012 OVC017 M07/M09 A2946 RMK AO1 SLP023
SPECI CYNL 270113Z AUTO 16004KT 2SM BKN013 OVC018 M07/M09 A2946 RMK AO1 SLP022
SPECI CYNL 270110Z AUTO 16004KT 1 3/4SM FEW010 BKN013 OVC018 M07/M09 A2946 RMK AO1 SLP023
SPECI CYNL 270109Z AUTO 16004KT 1 3/4SM VV017 M07/M09 A2946 RMK AO1 SLP023
SPECI CYNL 270105Z AUTO 15005KT 2SM VV015 M07/M09 A2946 RMK AO1 SLP023
SPECI CYNL 270104Z AUTO 15004KT 1 3/4SM VV014 M07/M09 A2946 RMK AO1 SLP023
SPECI CYNL 270101Z AUTO 15004KT 1 1/4SM BKN012 OVC015 M08/M09 A2946 RMK AO1 SLP024
METAR CYNL 270100Z AUTO 15005KT 1 1/2SM BKN012 OVC015 M08/M09 A2946 RMK AO1 SLP024
SPECI CYNL 270056Z AUTO 15004KT 2SM OVC011 M08/M09 A2946 RMK AO1 SLP025
SPECI CYNL 270054Z AUTO 16004KT 1 3/4SM OVC011 M08/M09 A2947 RMK AO1 SLP025
SPECI CYNL 270053Z AUTO 16004KT 2 1/2SM OVC011 M08/M09 A2947 RMK AO1 SLP025
SPECI CYNL 270028Z AUTO 15004KT 3SM FEW009 BKN012 OVC016 M08/M09 A2947 RMK AO1 SLP026
SPECI CYNL 270025Z AUTO 15004KT 2 1/2SM FEW009 BKN013 BKN016 M08/M09 A2947 RMK AO1 SLP026
SPECI CYNL 270024Z AUTO 15004KT 2SM FEW009 SCT013 BKN016 M08/M09 A2947 RMK AO1 SLP026
SPECI CYNL 270019Z AUTO 15005KT 1 3/4SM VV013 M08/M09 A2947 RMK AO1 SLP026
SPECI CYNL 270017Z AUTO 15005KT 2 1/2SM VV014 M08/M09 A2947 RMK AO1 SLP026
SPECI CYNL 270016Z AUTO 15005KT 2 1/2SM VV015 M08/M09 A2947 RMK AO1 SLP026
SPECI CYNL 270015Z AUTO 15005KT 2SM VV014 M08/M09 A2947 RMK AO1 SLP026
SPECI CYNL 270014Z AUTO 15005KT 1 1/2SM VV015 M08/M09 A2947 RMK AO1 SLP026
SPECI CYNL 270013Z AUTO 15005KT 1 1/4SM VV014 M08/M09 A2947 RMK AO1 SLP026
SPECI CYNL 270012Z AUTO 15005KT 1SM VV015 M08/M09 A2947 RMK AO1 SLP027
SPECI CYNL 270011Z AUTO 15004KT 1 1/4SM FEW007 SCT010 BKN016 M08/M09 A2947 RMK AO1 SLP027
SPECI CYNL 270010Z AUTO 15004KT 1 1/2SM FEW007 SCT010 BKN016 M08/M09 A2947 RMK AO1 SLP027
SPECI CYNL 270008Z AUTO 16004KT 2 1/2SM FEW007 SCT010 BKN015 M08/M09 A2947 RMK AO1 SLP027
SPECI CYNL 270006Z AUTO 15003KT 3SM FEW007 SCT010 BKN016 M08/M09 A2947 RMK AO1 SLP027
SPECI CYNL 270001Z AUTO 16003KT 3SM VV015 M08/M09 A2947 RMK AO1 SLP027
METAR CYNL 270000Z AUTO 16004KT 3SM VV014 M08/M09 A2947 RMK AO1 SLP027
SPECI CYNL 262359Z AUTO 15004KT 2 1/2SM VV013 M08/M09 A2947 RMK AO1 SLP027
SPECI CYNL 262357Z AUTO 15004KT 1SM VV011 M08/M09 A2947 RMK AO1 SLP027
SPECI CYNL 262356Z AUTO 15004KT 3/4SM VV011 M08/M09 A2947 RMK AO1 SLP027
SPECI CYNL 262353Z AUTO 15005KT 1 1/4SM VV010 M08/M09 A2947 RMK AO1 SLP027
SPECI CYNL 262347Z AUTO 15004KT 1SM VV008 M08/M09 A2947 RMK AO1 SLP027
SPECI CYNL 262343Z AUTO 14004KT 3/4SM VV007 M08/M09 A2946 RMK AO1 SLP026
SPECI CYNL 262338Z AUTO 14003KT 1/2SM VV009 M08/M09 A2947 RMK AO1 SLP026
SPECI CYNL 262337Z AUTO 14004KT 5/8SM VV010 M08/M09 A2947 RMK AO1 SLP026
SPECI CYNL 262334Z AUTO 13004KT 1SM VV014 M08/M09 A2946 RMK AO1 SLP026
SPECI CYNL 262330Z AUTO 14005KT 1 1/4SM VV017 M08/M09 A2947 RMK AO1 SLP026
SPECI CYNL 262329Z AUTO 15004KT 1 1/2SM VV017 M08/M09 A2947 RMK AO1 SLP026
SPECI CYNL 262327Z AUTO 14006KT 2SM VV017 M08/M10 A2947 RMK AO1 SLP027
SPECI CYNL 262324Z AUTO 15006KT 1 3/4SM VV015 M08/M10 A2947 RMK AO1 SLP027
SPECI CYNL 262321Z AUTO 15005KT 2SM VV016 M08/M10 A2947 RMK AO1 SLP027
SPECI CYNL 262320Z AUTO 15006KT 1 3/4SM VV015 M08/M10 A2947 RMK AO1 SLP027
SPECI CYNL 262318Z AUTO 15005KT 1 1/4SM VV016 M08/M09 A2947 RMK AO1 SLP027
SPECI CYNL 262312Z AUTO 15004KT 1 3/4SM VV018 M08/M10 A2947 RMK AO1 SLP026
SPECI CYNL 262310Z AUTO 16004KT 2SM VV016 M08/M10 A2947 RMK AO1 SLP026
SPECI CYNL 262307Z AUTO 15005KT 1 1/2SM VV015 M08/M10 A2947 RMK AO1 SLP026
SPECI CYNL 262304Z AUTO 15005KT 1 1/4SM VV013 M08/M10 A2947 RMK AO1 SLP026
METAR CYNL 262300Z AUTO 16006KT 1 1/2SM VV013 M08/M10 A2946 RMK AO1 SLP026
SPECI CYNL 262256Z AUTO 16005KT 1 1/2SM VV014 M08/M10 A2946 RMK AO1 SLP026
SPECI CYNL 262254Z AUTO 15005KT 1 3/4SM VV017 M08/M10 A2946 RMK AO1 SLP026
SPECI CYNL 262252Z AUTO 15005KT 2 1/2SM VV019 M08/M10 A2946 RMK AO1 SLP026
SPECI CYNL 262247Z AUTO 16005KT 4SM VV019 M08/M10 A2946 RMK AO1 SLP025
SPECI CYNL 262245Z AUTO 14005KT 3SM FEW008 SCT012 OVC019 M08/M10 A2946 RMK AO1 SLP025
SPECI CYNL 262244Z AUTO 14005KT 2SM FEW008 SCT012 BKN018 M08/M10 A2946 RMK AO1 SLP024
SPECI CYNL 262240Z AUTO 14004KT 1 3/4SM FEW008 BKN017 OVC022 M08/M10 A2946 RMK AO1 SLP024
SPECI CYNL 262239Z AUTO 15004KT 2 1/2SM FEW008 BKN017 OVC022 M08/M10 A2946 RMK AO1 SLP025
SPECI CYNL 262238Z AUTO 15004KT 2 1/2SM VV017 M08/M10 A2946 RMK AO1 SLP024
SPECI CYNL 262235Z AUTO 15004KT 3SM VV015 M08/M10 A2946 RMK AO1 SLP024
SPECI CYNL 262234Z AUTO 15004KT 3SM VV014 M08/M10 A2946 RMK AO1 SLP024
SPECI CYNL 262232Z AUTO 15004KT 3SM FEW006 SCT008 BKN017 M08/M10 A2946 RMK AO1 SLP024
SPECI CYNL 262229Z AUTO 15006KT 3SM SCT007 BKN017 OVC023 M08/M10 A2946 RMK AO1 SLP024
SPECI CYNL 262228Z AUTO 15006KT 2 1/2SM FEW007 SCT012 BKN017 M08/M10 A2946 RMK AO1 SLP024
SPECI CYNL 262226Z AUTO 14005KT 2 1/2SM VV017 M08/M10 A2946 RMK AO1 SLP024
SPECI CYNL 262223Z AUTO 15005KT 3SM VV016 M08/M10 A2946 RMK AO1 SLP024
SPECI CYNL 262222Z AUTO 15006KT 2SM SCT007 BKN018 OVC023 M08/M10 A2946 RMK AO1 SLP024
SPECI CYNL 262219Z AUTO 15006KT 1 1/4SM SCT007 OVC018 M08/M10 A2946 RMK AO1 SLP025
SPECI CYNL 262218Z AUTO 15007KT 2 1/2SM SCT007 OVC018 M08/M10 A2946 RMK AO1 SLP025
SPECI CYNL 262217Z AUTO 15007KT 3SM FEW006 SCT008 OVC018 M08/M10 A2946 RMK AO1 SLP025
SPECI CYNL 262214Z AUTO 15006KT 6SM SCT007 OVC017 M08/M10 A2946 RMK AO1 SLP025
SPECI CYNL 262213Z AUTO 15006KT 4SM BKN007 OVC017 M08/M10 A2946 RMK AO1 SLP025
SPECI CYNL 262212Z AUTO 16005KT 1 3/4SM BKN007 OVC017 M08/M10 A2946 RMK AO1 SLP025
SPECI CYNL 262211Z AUTO 16006KT 1SM VV007 M08/M10 A2946 RMK AO1 SLP025
SPECI CYNL 262202Z AUTO 15006KT 1/2SM VV008 M08/M10 A2946 RMK AO1 SLP024
METAR CYNL 262200Z AUTO 15006KT 3/8SM VV011 M08/M10 A2946 RMK AO1 SLP024
SPECI CYNL 262159Z AUTO 15006KT 3/8SM VV012 M08/M10 A2946 RMK AO1 SLP024
SPECI CYNL 262157Z AUTO 15006KT 5/8SM FEW008 SCT011 OVC017 M08/M10 A2946 RMK AO1 SLP024
SPECI CYNL 262156Z AUTO 14005KT 1SM FEW008 OVC017 M08/M10 A2946 RMK AO1 SLP024
SPECI CYNL 262153Z AUTO 15005KT 2 1/2SM FEW008 OVC016 M08/M10 A2946 RMK AO1 SLP024
SPECI CYNL 262151Z AUTO 15006KT 3SM FEW008 SCT009 OVC016 M08/M10 A2945 RMK AO1 SLP023
SPECI CYNL 262150Z AUTO 15006KT 3SM SCT008 OVC016 M08/M10 A2945 RMK AO1 SLP023
SPECI CYNL 262149Z AUTO 15005KT 2 1/2SM FEW008 SCT009 OVC016 M08/M10 A2945 RMK AO1 SLP023
SPECI CYNL 262148Z AUTO 15005KT 2SM SCT008 OVC016 M08/M10 A2945 RMK AO1 SLP023
SPECI CYNL 262144Z AUTO 15006KT 1 1/4SM SCT008 OVC015 M08/M10 A2945 RMK AO1 SLP022
SPECI CYNL 262142Z AUTO 15006KT 1 3/4SM SCT008 OVC015 M08/M10 A2945 RMK AO1 SLP022
SPECI CYNL 262141Z AUTO 15006KT 2SM SCT008 OVC015 M08/M10 A2945 RMK AO1 SLP021
SPECI CYNL 262138Z AUTO 15006KT 2 1/2SM BKN008 OVC015 M08/M10 A2945 RMK AO1 SLP021
METAR CYNL 262100Z AUTO 15008KT 9SM BKN009 OVC014 M08/M10 A2944 RMK AO1 SLP019
SPECI CYNL 262055Z AUTO 15008KT 7SM BKN009 OVC014 M08/M10 A2944 RMK AO1 SLP019
SPECI CYNL 262044Z AUTO 14007KT 3SM SCT008 BKN012 OVC015 M08/M10 A2944 RMK AO1 SLP019
SPECI CYNL 262041Z AUTO 15009KT 2SM SCT008 OVC014 M08/M10 A2944 RMK AO1 SLP020
SPECI CYNL 262037Z AUTO 15007KT 2 1/2SM BKN008 OVC013 M08/M10 A2944 RMK AO1 SLP020
SPECI CYNL 262024Z AUTO 15009KT 5SM BKN008 OVC013 M08/M10 A2944 RMK AO1 SLP019
SPECI CYNL 262022Z AUTO 15009KT 5SM SCT008 BKN010 OVC013 M08/M10 A2944 RMK AO1 SLP019
SPECI CYNL 262021Z AUTO 14008KT 5SM BKN009 OVC013 M08/M10 A2944 RMK AO1 SLP019
SPECI CYNL 262015Z AUTO 15009KT 3SM SCT009 OVC013 M08/M10 A2944 RMK AO1 SLP019
SPECI CYNL 262014Z AUTO 15009KT 3SM FEW010 SCT011 OVC013 M08/M10 A2944 RMK AO1 SLP019
METAR CYNL 262000Z AUTO 16007KT 5SM OVC013 M08/M10 A2944 RMK AO1 SLP020
SPECI CYNL 261951Z AUTO 14008KT 3SM OVC013 M08/M10 A2944 RMK AO1 SLP021
SPECI CYNL 261950Z AUTO 15009KT 2 1/2SM OVC013 M08/M10 A2944 RMK AO1 SLP021
METAR CYNL 261900Z AUTO 15008KT 9SM OVC013 M08/M11 A2945 RMK AO1 SLP023
METAR CYNL 261800Z AUTO 15008KT 9SM BKN014 BKN016 OVC018 M09/M11 A2946 RMK AO1 SLP026
SPECI CYNL 261747Z AUTO 15009KT 4SM FEW009 BKN014 OVC018 M09/M11 A2946 RMK AO1 SLP026
SPECI CYNL 261746Z AUTO 15008KT 3SM FEW009 SCT012 BKN015 M09/M11 A2946 RMK AO1 SLP026
SPECI CYNL 261743Z AUTO 15009KT 4SM VV015 M09/M11 A2946 RMK AO1 SLP026
SPECI CYNL 261742Z AUTO 15009KT 3SM VV014 M09/M11 A2946 RMK AO1 SLP026
SPECI CYNL 261741Z AUTO 15009KT 3SM FEW009 SCT012 OVC017 M09/M11 A2946 RMK AO1 SLP027
SPECI CYNL 261739Z AUTO 15009KT 2 1/2SM FEW009 SCT012 OVC018 M09/M11 A2946 RMK AO1 SLP027
SPECI CYNL 261736Z AUTO 15008KT 2 1/2SM SCT009 OVC018 M09/M11 A2946 RMK AO1 SLP028
SPECI CYNL 261731Z AUTO 16007KT 3SM SCT009 OVC018 M09/M11 A2946 RMK AO1 SLP029
SPECI CYNL 261730Z AUTO 16007KT 3SM SCT009 BKN012 OVC018 M09/M11 A2946 RMK AO1 SLP029
SPECI CYNL 261728Z AUTO 15008KT 2 1/2SM VV009 M09/M11 A2946 RMK AO1 SLP029
SPECI CYNL 261726Z AUTO 15009KT 2SM VV010 M09/M12 A2946 RMK AO1 SLP029
SPECI CYNL 261723Z AUTO 15009KT 1 3/4SM VV011 M09/M12 A2946 RMK AO1 SLP029
SPECI CYNL 261718Z AUTO 15008KT 2SM VV010 M09/M12 A2946 RMK AO1 SLP029
SPECI CYNL 261715Z AUTO 15009KT 1 1/2SM FEW011 OVC017 M09/M12 A2946 RMK AO1 SLP029
SPECI CYNL 261713Z AUTO 15009KT 2 1/2SM FEW010 OVC017 M09/M12 A2946 RMK AO1 SLP029
METAR CYNL 261700Z AUTO 14010KT 9SM OVC016 M10/M12 A2946 RMK AO1 SLP029
METAR CYNL 261600Z AUTO 13008KT 9SM OVC015 M10/M12 A2947 RMK AO1 SLP031
SPECI CYNL 261538Z AUTO 14007KT 4SM OVC015 M10/M13 A2947 RMK AO1 SLP034
SPECI CYNL 261533Z AUTO 14008KT 2SM VV015 M10/M13 A2947 RMK AO1 SLP034
SPECI CYNL 261532Z AUTO 14008KT 1 3/4SM VV015 M10/M13 A2947 RMK AO1 SLP034
SPECI CYNL 261531Z AUTO 14007KT 2SM FEW010 OVC015 M10/M13 A2947 RMK AO1 SLP034
SPECI CYNL 261529Z AUTO 14007KT 4SM FEW010 OVC015 M11/M13 A2947 RMK AO1 SLP034
SPECI CYNL 261528Z AUTO 14007KT 7SM BKN013 OVC017 M11/M13 A2947 RMK AO1 SLP034
SPECI CYNL 261527Z AUTO 13007KT 6SM FEW010 OVC015 M11/M13 A2947 RMK AO1 SLP034
SPECI CYNL 261526Z AUTO 13007KT 4SM BKN013 OVC017 M11/M13 A2947 RMK AO1 SLP034
SPECI CYNL 261525Z AUTO 14006KT 2SM BKN013 OVC017 M11/M13 A2947 RMK AO1 SLP034
SPECI CYNL 261519Z AUTO 14007KT 1 1/2SM VV012 M11/M13 A2947 RMK AO1 SLP034
SPECI CYNL 261515Z AUTO 13007KT 1 1/4SM VV012 M11/M13 A2947 RMK AO1 SLP034
SPECI CYNL 261514Z AUTO 13005KT 1 1/2SM VV012 M11/M13 A2947 RMK AO1 SLP034
SPECI CYNL 261511Z AUTO 14007KT 2 1/2SM VV014 M11/M13 A2947 RMK AO1 SLP034
SPECI CYNL 261509Z AUTO 14007KT 2SM VV015 M11/M13 A2947 RMK AO1 SLP034
SPECI CYNL 261508Z AUTO 14007KT 1 3/4SM VV015 M11/M13 A2947 RMK AO1 SLP034
SPECI CYNL 261506Z AUTO 14008KT 2 1/2SM OVC016 M11/M13 A2947 RMK AO1 SLP035
SPECI CYNL 261502Z AUTO 14008KT 3SM OVC016 M11/M13 A2948 RMK AO1 SLP035
METAR CYNL 261500Z AUTO 14007KT 2SM OVC016 M11/M13 A2947 RMK AO1 SLP035
SPECI CYNL 261459Z AUTO 14007KT 1 1/2SM OVC016 M11/M13 A2947 RMK AO1 SLP034
SPECI CYNL 261456Z AUTO 14007KT 1SM OVC016 M11/M13 A2947 RMK AO1 SLP034
SPECI CYNL 261454Z AUTO 14006KT 2 1/2SM OVC016 M11/M13 A2947 RMK AO1 SLP034
SPECI CYNL 261428Z AUTO 14008KT 9SM OVC017 M11/M13 A2948 RMK AO1 SLP035
SPECI CYNL 261426Z AUTO 14006KT 2SM OVC017 M11/M13 A2947 RMK AO1 SLP034
METAR CYNL 261400Z AUTO 14008KT 7SM FEW016 OVC019 M11/M13 A2948 RMK AO1 SLP035
METAR CYNL 261300Z AUTO 14006KT 9SM FEW016 OVC021 M11/M14 A2948 RMK AO1 SLP039
METAR CYNL 261200Z AUTO 14006KT 9SM FEW016 OVC024 M12/M14 A2950 RMK AO1 SLP044
SPECI CYNL 261124Z AUTO 14006KT 8SM FEW018 BKN024 OVC035 M12/M14 A2950 RMK AO1 SLP046
SPECI CYNL 261115Z AUTO 14007KT 9SM FEW008 SCT017 OVC025 M12/M14 A2950 RMK AO1 SLP047
SPECI CYNL 261112Z AUTO 14006KT 7SM SCT017 OVC025 M12/M14 A2951 RMK AO1 SLP048
METAR CYNL 261100Z AUTO 14008KT 6SM VV020 M12/M15 A2951 RMK AO1 SLP050
SPECI CYNL 261047Z AUTO 15007KT 9SM VV024 M12/M15 A2952 RMK AO1 SLP054
SPECI CYNL 261045Z AUTO 15007KT 8SM VV025 M12/M15 A2952 RMK AO1 SLP054
SPECI CYNL 261037Z AUTO 16007KT 9SM FEW009 BKN018 OVC027 M12/M15 A2952 RMK AO1 SLP055
SPECI CYNL 261030Z AUTO 15007KT 3SM FEW004 SCT014 BKN019 M12/M15 A2952 RMK AO1 SLP055
SPECI CYNL 261025Z AUTO 16010KT 4SM VV015 M12/M15 A2953 RMK AO1 SLP055
SPECI CYNL 261020Z AUTO 15007KT 4SM VV013 M12/M15 A2953 RMK AO1 SLP056
METAR CYNL 261000Z AUTO 15007KT 3SM FEW003 SCT009 BKN014 M12/M15 A2953 RMK AO1 SLP057
SPECI CYNL 260959Z AUTO 15007KT 2 1/2SM FEW003 SCT009 BKN014 M12/M15 A2953 RMK AO1 SLP058
SPECI CYNL 260955Z AUTO 15007KT 2 1/2SM FEW003 BKN009 OVC029 M12/M15 A2953 RMK AO1 SLP059
SPECI CYNL 260952Z AUTO 15007KT 7SM FEW004 SCT009 BKN014 M12/M15 A2953 RMK AO1 SLP059
SPECI CYNL 260949Z AUTO 15008KT 5SM VV013 M12/M15 A2953 RMK AO1 SLP059
SPECI CYNL 260948Z AUTO 15008KT 5SM FEW004 SCT009 BKN014 M12/M15 A2953 RMK AO1 SLP058
SPECI CYNL 260946Z AUTO 15008KT 4SM VV011 M12/M15 A2953 RMK AO1 SLP058
SPECI CYNL 260945Z AUTO 15007KT 4SM VV009 M12/M15 A2953 RMK AO1 SLP058
SPECI CYNL 260944Z AUTO 15007KT 4SM VV011 M12/M15 A2953 RMK AO1 SLP058
SPECI CYNL 260943Z AUTO 15008KT 4SM FEW004 SCT009 BKN014 M12/M15 A2953 RMK AO1 SLP058
SPECI CYNL 260940Z AUTO 15008KT 3SM VV011 M12/M15 A2953 RMK AO1 SLP058
SPECI CYNL 260918Z AUTO 15008KT 9SM FEW009 OVC032 M13/M15 A2954 RMK AO1 SLP061
METAR CYNL 260900Z AUTO 15008KT 9SM OVC035 M13/M15 A2954 RMK AO1 SLP061
SPECI CYNL 260827Z AUTO 13009KT 9SM FEW005 SCT009 BKN038 M13/M16 A2954 RMK AO1 SLP062
SPECI CYNL 260825Z AUTO 14007KT 9SM FEW005 BKN009 BKN038 M13/M16 A2954 RMK AO1 SLP062
SPECI CYNL 260822Z AUTO 14008KT 9SM FEW004 SCT010 OVC038 M13/M16 A2954 RMK AO1 SLP062
SPECI CYNL 260821Z AUTO 14009KT 9SM SCT010 OVC038 M13/M16 A2954 RMK AO1 SLP062
SPECI CYNL 260818Z AUTO 14008KT 9SM VV010 M13/M16 A2954 RMK AO1 SLP063
METAR CYNL 260800Z AUTO 14007KT 9SM FEW011 OVC038 M13/M16 A2954 RMK AO1 SLP063
SPECI CYNL 260746Z AUTO 14007KT 9SM SCT011 OVC040 M13/M16 A2955 RMK AO1 SLP064
SPECI CYNL 260739Z AUTO 14008KT 3SM SCT011 BKN026 OVC041 M13/M16 A2954 RMK AO1 SLP064
SPECI CYNL 260735Z AUTO 14008KT 3SM VV011 M13/M16 A2955 RMK AO1 SLP065
SPECI CYNL 260731Z AUTO 14006KT 2 1/2SM VV013 M13/M16 A2955 RMK AO1 SLP065
SPECI CYNL 260728Z AUTO 13009KT 2 1/2SM VV018 M13/M16 A2955 RMK AO1 SLP065
SPECI CYNL 260725Z AUTO 15009KT 3SM VV024 M13/M16 A2955 RMK AO1 SLP065
SPECI CYNL 260718Z AUTO 15007KT 3SM VV028 M13/M16 A2955 RMK AO1 SLP066
SPECI CYNL 260709Z AUTO 14008KT 2 1/2SM VV025 M13/M16 A2955 RMK AO1 SLP066
SPECI CYNL 260702Z AUTO 14009KT 2SM VV016 M13/M16 A2955 RMK AO1 SLP066
METAR CYNL 260700Z AUTO 14009KT 1 3/4SM VV015 M13/M16 A2955 RMK AO1 SLP066
SPECI CYNL 260652Z AUTO 14007KT 1 1/2SM VV013 M13/M16 A2955 RMK AO1 PRESFR SLP068
SPECI CYNL 260650Z AUTO 14008KT 1 1/4SM VV013 M13/M16 A2955 RMK AO1 PRESFR SLP069
SPECI CYNL 260649Z AUTO 14007KT 1 1/2SM VV012 M13/M16 A2956 RMK AO1 PRESFR SLP069
SPECI CYNL 260645Z AUTO 14009KT 1 1/4SM VV011 M13/M16 A2956 RMK AO1 PRESFR SLP069
SPECI CYNL 260644Z AUTO 14009KT 1 1/2SM VV011 M13/M16 A2956 RMK AO1 PRESFR SLP069
SPECI CYNL 260640Z AUTO 14008KT 1SM VV010 M13/M16 A2956 RMK AO1 PRESFR SLP069
SPECI CYNL 260636Z AUTO 13008KT 1SM VV008 M13/M16 A2956 RMK AO1 PRESFR SLP070
SPECI CYNL 260635Z AUTO 13009KT 3/4SM VV008 M13/M16 A2956 RMK AO1 PRESFR SLP070
SPECI CYNL 260634Z AUTO 14010KT 5/8SM VV008 M13/M16 A2956 RMK AO1 PRESFR SLP070
SPECI CYNL 260633Z AUTO 14011KT 3/4SM VV008 M13/M16 A2956 RMK AO1 PRESFR SLP070
SPECI CYNL 260631Z AUTO 13010KT 1SM VV008 M13/M16 A2956 RMK AO1 PRESFR SLP069
SPECI CYNL 260626Z AUTO 13009KT 3/4SM VV008 M13/M16 A2956 RMK AO1 PRESFR SLP069
SPECI CYNL 260614Z AUTO 14009KT 5/8SM VV009 M13/M16 A2956 RMK AO1 PRESFR SLP071
SPECI CYNL 260613Z AUTO 14010KT 3/4SM VV009 M13/M16 A2956 RMK AO1 PRESFR SLP072
SPECI CYNL 260606Z AUTO 14010G15KT 5/8SM VV009 M13/M16 A2956 RMK AO1 PRESFR SLP072
SPECI CYNL 260601Z AUTO 14011G18KT 3/4SM VV008 M13/M16 A2957 RMK AO1 PRESFR SLP073
METAR CYNL 260600Z AUTO 14009G18KT 5/8SM VV008 M13/M16 A2957 RMK AO1 PRESFR SLP073
SPECI CYNL 260550Z AUTO 14008G16KT 1/2SM VV009 M13/M16 A2957 RMK AO1 SLP078
SPECI CYNL 260546Z AUTO 15010G16KT 5/8SM VV012 M13/M16 A2958 RMK AO1 SLP079
SPECI CYNL 260544Z AUTO 15011G16KT 3/4SM VV013 M13/M16 A2958 RMK AO1 SLP079
SPECI CYNL 260543Z AUTO 15010G16KT 1SM VV014 M13/M16 A2958 RMK AO1 SLP079
SPECI CYNL 260538Z AUTO 14010KT 1SM VV015 M13/M16 A2958 RMK AO1 SLP080
SPECI CYNL 260536Z AUTO 14011KT 1SM VV014 M13/M16 A2958 RMK AO1 SLP081
SPECI CYNL 260534Z AUTO 14010KT 3/4SM VV014 M13/M16 A2958 RMK AO1 SLP081
SPECI CYNL 260532Z AUTO 14011G22KT 5/8SM VV014 M13/M16 A2958 RMK AO1 SLP081
SPECI CYNL 260531Z AUTO 14011G22KT 3/4SM VV014 M13/M16 A2958 RMK AO1 SLP081
SPECI CYNL 260521Z AUTO 15012G18KT 1 1/4SM VV015 M13/M16 A2958 RMK AO1 SLP082
SPECI CYNL 260518Z AUTO 14010G17KT 1SM VV012 M13/M16 A2958 RMK AO1 SLP081
SPECI CYNL 260517Z AUTO 14011G17KT 3/4SM VV011 M13/M16 A2958 RMK AO1 SLP081
SPECI CYNL 260516Z AUTO 14012G17KT 5/8SM VV010 M13/M16 A2958 RMK AO1 SLP081
SPECI CYNL 260508Z AUTO 14012KT 1/2SM VV009 M13/M16 A2958 RMK AO1 SLP082
SPECI CYNL 260505Z AUTO 15011G16KT 5/8SM VV011 M13/M16 A2959 RMK AO1 SLP083
SPECI CYNL 260503Z AUTO 15011G16KT 3/4SM VV012 M13/M16 A2959 RMK AO1 SLP083
METAR CYNL 260500Z AUTO 15012KT 1 1/4SM VV014 M13/M16 A2959 RMK AO1 SLP083
SPECI CYNL 260459Z AUTO 15013KT 1 1/4SM VV014 M13/M16 A2959 RMK AO1 SLP084
SPECI CYNL 260456Z AUTO 14010G18KT 1 3/4SM VV015 M13/M16 A2959 RMK AO1 SLP085
SPECI CYNL 260450Z AUTO 14011G19KT 2SM VV016 M13/M16 A2959 RMK AO1 SLP085
SPECI CYNL 260449Z AUTO 15012G19KT 1 3/4SM VV016 M13/M16 A2959 RMK AO1 SLP085
SPECI CYNL 260440Z AUTO 15015KT 2 1/2SM VV024 M13/M16 A2959 RMK AO1 SLP085
SPECI CYNL 260439Z AUTO 14011G18KT 2 1/2SM VV025 M13/M16 A2959 RMK AO1 SLP086
SPECI CYNL 260431Z AUTO 15011G16KT 2SM VV021 M13/M16 A2959 RMK AO1 SLP087
SPECI CYNL 260428Z AUTO 14010G16KT 1 1/2SM VV018 M13/M16 A2959 RMK AO1 SLP087
SPECI CYNL 260424Z AUTO 14011KT 1 1/4SM VV015 M13/M16 A2959 RMK AO1 SLP087
SPECI CYNL 260419Z AUTO 14010KT 1 1/4SM VV014 M13/M16 A2959 RMK AO1 SLP087
SPECI CYNL 260418Z AUTO 14009KT 1 1/2SM VV013 M13/M16 A2960 RMK AO1 SLP088
SPECI CYNL 260412Z AUTO 14010KT 1 1/4SM VV010 M13/M16 A2960 RMK AO1 SLP087
SPECI CYNL 260408Z AUTO 14010G15KT 1SM VV009 M13/M16 A2960 RMK AO1 SLP088
SPECI CYNL 260407Z AUTO 14009G15KT 3/4SM VV009 M13/M16 A2960 RMK AO1 SLP088
SPECI CYNL 260405Z AUTO 14010G15KT 3/4SM VV011 M13/M16 A2960 RMK AO1 SLP088
SPECI CYNL 260402Z AUTO 14010G17KT 1SM VV014 M13/M16 A2960 RMK AO1 SLP089
METAR CYNL 260400Z AUTO 14009G17KT 1 1/4SM VV015 M13/M16 A2960 RMK AO1 SLP090
SPECI CYNL 260358Z AUTO 14011G17KT 1 1/4SM VV016 M13/M16 A2960 RMK AO1 SLP094
SPECI CYNL 260353Z AUTO 14013KT 1 1/2SM VV015 M13/M16 A2960 RMK AO1 PRESFR SLP095
SPECI CYNL 260351Z AUTO 14011G18KT 1 1/4SM VV013 M13/M16 A2961 RMK AO1 PRESFR SLP095
SPECI CYNL 260344Z AUTO 14012G17KT 1 1/2SM VV012 M13/M16 A2961 RMK AO1 PRESFR SLP096
SPECI CYNL 260343Z AUTO 14012KT 1 1/4SM VV011 M13/M16 A2961 RMK AO1 PRESFR SLP096
SPECI CYNL 260340Z AUTO 14011KT 1 3/4SM VV010 M13/M16 A2961 RMK AO1 PRESFR SLP096
SPECI CYNL 260337Z AUTO 14010G16KT 1 1/2SM VV008 M13/M16 A2961 RMK AO1 PRESFR SLP096
SPECI CYNL 260325Z AUTO 14012KT 1SM VV009 M13/M16 A2961 RMK AO1 PRESFR SLP096
SPECI CYNL 260320Z AUTO 13012KT 1 1/4SM VV010 M13/M16 A2961 RMK AO1 PRESFR SLP096
SPECI CYNL 260316Z AUTO 14012G18KT 1 1/2SM VV010 M13/M16 A2961 RMK AO1 PRESFR SLP096
SPECI CYNL 260301Z AUTO 14010G16KT 1 1/2SM VV009 M13/M16 A2962 RMK AO1 PRESFR SLP099
METAR CYNL 260300Z AUTO 13011G17KT 1 1/4SM VV009 M13/M16 A2962 RMK AO1 PRESFR SLP099
SPECI CYNL 260256Z AUTO 14012G17KT 1SM VV009 M13/M16 A2962 RMK AO1 PRESFR SLP103
METAR CYNL 260200Z AUTO 13012G18KT 1SM VV010 M13/M16 A2964 RMK AO1 PRESFR SLP111
SPECI CYNL 260148Z AUTO 13011G16KT 1SM VV009 M13/M16 A2965 RMK AO1 PRESFR SLP117
SPECI CYNL 260145Z AUTO 13013KT 1SM VV010 M13/M16 A2966 RMK AO1 PRESFR SLP118
SPECI CYNL 260144Z AUTO 14012G18KT 3/4SM VV010 M13/M16 A2966 RMK AO1 PRESFR SLP119
SPECI CYNL 260142Z AUTO 13012G18KT 1SM VV010 M13/M16 A2966 RMK AO1 PRESFR SLP119
SPECI CYNL 260137Z AUTO 13014KT 3/4SM VV009 M13/M16 A2966 RMK AO1 PRESFR SLP121
SPECI CYNL 260135Z AUTO 14014KT 5/8SM VV009 M13/M16 A2967 RMK AO1 PRESFR SLP122
SPECI CYNL 260134Z AUTO 13013KT 3/4SM VV009 M13/M16 A2967 RMK AO1 PRESFR SLP122
SPECI CYNL 260132Z AUTO 13012G18KT 3/4SM VV010 M13/M16 A2967 RMK AO1 PRESFR SLP122
METAR CYNL 260100Z AUTO 14010G18KT 1SM VV013 M13/M16 A2969 RMK AO1 PRESFR SLP129
SPECI CYNL 260047Z AUTO 13010G16KT 1 1/4SM VV014 M13/M16 A2970 RMK AO1 SLP131
SPECI CYNL 260041Z AUTO 13012KT 1 1/4SM VV016 M13/M16 A2970 RMK AO1 SLP133
SPECI CYNL 260030Z AUTO 13010G16KT 1 3/4SM VV015 M14/M16 A2971 RMK AO1 SLP137
SPECI CYNL 260028Z AUTO 14011KT 2SM VV015 M14/M16 A2971 RMK AO1 SLP138
SPECI CYNL 260016Z AUTO 14011G17KT 2SM VV014 M14/M16 A2973 RMK AO1 SLP142
SPECI CYNL 260008Z AUTO 14009G15KT 1 1/2SM VV012 M14/M17 A2974 RMK AO1 SLP146
METAR CYNL 260000Z AUTO 15009G16KT 1SM VV012 M14/M17 A2974 RMK AO1 SLP147
SPECI CYNL 252353Z AUTO 15010G16KT 1 1/4SM VV013 M14/M17 A2975 RMK AO1 PRESFR SLP152
SPECI CYNL 252338Z AUTO 15012KT 1 1/2SM VV013 M14/M17 A2976 RMK AO1 PRESFR SLP157
SPECI CYNL 252334Z AUTO 15008KT 1SM VV011 M14/M17 A2976 RMK AO1 PRESFR SLP157
SPECI CYNL 252329Z AUTO 15008KT 3/4SM VV011 M14/M17 A2976 RMK AO1 PRESFR SLP157
SPECI CYNL 252314Z AUTO 15008KT 1 1/4SM VV013 M14/M17 A2976 RMK AO1 PRESFR SLP158
SPECI CYNL 252310Z AUTO 14008KT 1 1/2SM VV013 M14/M17 A2976 RMK AO1 PRESFR SLP156
SPECI CYNL 252304Z AUTO 14007KT 1 1/4SM VV014 M14/M17 A2976 RMK AO1 PRESFR SLP157
SPECI CYNL 252301Z AUTO 13009KT 1 3/4SM VV016 M14/M17 A2976 RMK AO1 PRESFR SLP157
METAR CYNL 252300Z AUTO 14006KT 2SM VV016 M14/M17 A2976 RMK AO1 PRESFR SLP157
SPECI CYNL 252251Z AUTO 14007KT 2SM VV015 M14/M17 A2977 RMK AO1 SLP160
SPECI CYNL 252247Z AUTO 14007KT 2SM VV012 M15/M17 A2977 RMK AO1 SLP161
SPECI CYNL 252242Z AUTO 14006KT 1 1/2SM VV011 M15/M17 A2977 RMK AO1 SLP162
SPECI CYNL 252238Z AUTO 13008KT 1 1/4SM VV014 M15/M17 A2977 RMK AO1 SLP163
SPECI CYNL 252237Z AUTO 13009KT 1 1/2SM VV014 M15/M17 A2977 RMK AO1 SLP163
SPECI CYNL 252236Z AUTO 13008KT 1 3/4SM VV015 M15/M17 A2977 RMK AO1 SLP164
SPECI CYNL 252234Z AUTO 13009KT 2SM VV015 M15/M17 A2978 RMK AO1 SLP164
SPECI CYNL 252233Z AUTO 13009KT 2 1/2SM VV014 M15/M18 A2978 RMK AO1 SLP164
SPECI CYNL 252230Z AUTO 13008KT 5SM VV010 M15/M18 A2978 RMK AO1 SLP165
METAR CYNL 252200Z AUTO 14007KT 6SM VV006 M15/M18 A2979 RMK AO1 SLP171
SPECI CYNL 252142Z AUTO 14006KT 7SM VV007 M15/M18 A2979 RMK AO1 PRESFR SLP170
METAR CYNL 252100Z AUTO 14011G16KT 9SM FEW006 M15/M18 A2981 RMK AO1 PRESFR SLP176
SPECI CYNL 252052Z AUTO 14009G16KT 6SM SCT006 M15/M18 A2981 RMK AO1 PRESFR SLP179
SPECI CYNL 252050Z AUTO 14011G16KT 6SM SCT006 BKN011 M15/M18 A2982 RMK AO1 PRESFR SLP180
SPECI CYNL 252045Z AUTO 14010G16KT 6SM VV006 M15/M18 A2982 RMK AO1 PRESFR SLP181
SPECI CYNL 252035Z AUTO 13009KT 5SM FEW007 SCT011 BKN016 M16/M19 A2983 RMK AO1 PRESFR SLP184
SPECI CYNL 252034Z AUTO 14010KT 5SM FEW007 BKN011 M16/M19 A2983 RMK AO1 PRESFR SLP184
SPECI CYNL 252032Z AUTO 14009KT 4SM FEW007 SCT011 BKN013 M16/M19 A2983 RMK AO1 PRESFR SLP185
SPECI CYNL 252028Z AUTO 13008KT 3SM VV011 M16/M19 A2983 RMK AO1 PRESFR SLP186
SPECI CYNL 252026Z AUTO 14008KT 2 1/2SM VV011 M16/M19 A2983 RMK AO1 PRESFR SLP186
SPECI CYNL 252021Z AUTO 13008KT 3SM VV010 M16/M19 A2984 RMK AO1 PRESFR SLP187
SPECI CYNL 252017Z AUTO 13010KT 4SM VV009 M16/M19 A2984 RMK AO1 PRESFR SLP189
SPECI CYNL 252012Z AUTO 14008KT 9SM FEW007 M16/M19 A2984 RMK AO1 PRESFR SLP190
METAR CYNL 252000Z AUTO 14007G16KT 9SM FEW092 M15/M18 A2985 RMK AO1 PRESFR SLP191
SPECI CYNL 251915Z AUTO 14008KT 9SM SCT009 BKN090 M16/M19 A2987 RMK AO1 PRESFR SLP201
METAR CYNL 251900Z AUTO 14011KT 9SM BKN008 M16/M19 A2989 RMK AO1 PRESFR SLP207
SPECI CYNL 251856Z AUTO 14009KT 9SM BKN009 M17/M20 A2989 RMK AO1 PRESFR SLP204
SPECI CYNL 251826Z AUTO 15008KT 5SM FEW006 SCT010 BKN012 M17/M20 A2991 RMK AO1 PRESFR SLP211
SPECI CYNL 251824Z AUTO 14006KT 4SM SCT006 BKN010 BKN017 M17/M21 A2991 RMK AO1 PRESFR SLP212
SPECI CYNL 251819Z AUTO 14006KT 4SM VV009 M18/M21 A2991 RMK AO1 PRESFR SLP214
SPECI CYNL 251817Z AUTO 14007KT 3SM VV010 M18/M21 A2992 RMK AO1 PRESFR SLP215
SPECI CYNL 251815Z AUTO 15006KT 2 1/2SM VV012 M18/M21 A2992 RMK AO1 PRESFR SLP216
SPECI CYNL 251810Z AUTO 14006KT 7SM VV010 M18/M21 A2992 RMK AO1 PRESFR SLP218
METAR CYNL 251800Z AUTO 14005KT 4SM VV009 M19/M22 A2994 RMK AO1 PRESFR SLP223
SPECI CYNL 251743Z AUTO 14007KT 4SM VV007 M19/M22 A2994 RMK AO1 SLP224
SPECI CYNL 251730Z AUTO 14006KT 4SM FEW006 SCT011 BKN016 M19/M22 A2995 RMK AO1 SLP227
SPECI CYNL 251729Z AUTO 14007KT 4SM FEW006 BKN016 M19/M22 A2995 RMK AO1 SLP227
SPECI CYNL 251717Z AUTO 15009KT 4SM FEW006 SCT016 BKN022 M19/M23 A2996 RMK AO1 SLP229
SPECI CYNL 251709Z AUTO 15008KT 3SM VV014 M19/M23 A2996 RMK AO1 SLP231
SPECI CYNL 251708Z AUTO 15009KT 3SM FEW009 BKN022 M20/M23 A2996 RMK AO1 SLP231
METAR CYNL 251700Z AUTO 16009KT 9SM OVC022 M20/M23 A2997 RMK AO1 SLP235
METAR CYNL 251600Z AUTO 15008KT 9SM BKN016 OVC020 M23/M26 A2998 RMK AO1 SLP243
SPECI CYNL 251549Z AUTO 15007KT 9SM OVC015 M23/M27 A2998 RMK AO1 PRESFR SLP241
SPECI CYNL 251526Z AUTO 15006KT 9SM FEW008 OVC012 M24/M28 A2999 RMK AO1 PRESFR SLP246
SPECI CYNL 251525Z AUTO 15006KT 9SM FEW008 SCT010 OVC013 M24/M28 A3000 RMK AO1 PRESFR SLP247
SPECI CYNL 251524Z AUTO 16005KT 9SM FEW008 OVC012 M24/M28 A3000 RMK AO1 PRESFR SLP247
SPECI CYNL 251523Z AUTO 15005KT 9SM FEW008 SCT010 OVC013 M24/M28 A3000 RMK AO1 PRESFR SLP247
SPECI CYNL 251522Z AUTO 15005KT 9SM FEW008 OVC011 M24/M28 A3000 RMK AO1 PRESFR SLP247
SPECI CYNL 251521Z AUTO 15006KT 9SM FEW008 SCT011 OVC012 M24/M28 A3000 RMK AO1 PRESFR SLP247
SPECI CYNL 251508Z AUTO 15006KT 9SM FEW008 BKN010 OVC013 M25/M28 A3000 RMK AO1 PRESFR SLP248
METAR CYNL 251500Z AUTO 14005KT 9SM BKN010 OVC013 M25/M29 A3000 RMK AO1 PRESFR SLP249
SPECI CYNL 251443Z AUTO 15006KT 9SM FEW010 BKN014 M25/M29 A3001 RMK AO1 SLP252
SPECI CYNL 251435Z AUTO 15005KT 9SM FEW009 M26/M30 A3001 RMK AO1 SLP254
METAR CYNL 251400Z AUTO 15003KT 9SM CLR M27/M31 A3004 RMK AO1 SLP263
METAR CYNL 251300Z AUTO 16002KT 9SM CLR M27/M30 A3005 RMK AO1 PRESFR SLP269
METAR CYNL 251200Z AUTO 15004KT 9SM CLR M29/M33 A3008 RMK AO1 PRESFR SLP282
METAR CYNL 251100Z AUTO 17004KT 9SM CLR M30/M34 A3011 RMK AO1 SLP293
METAR CYNL 251000Z AUTO 00000KT 9SM CLR M29/M33 A3013 RMK AO1 SLP296
METAR CYNL 250900Z AUTO 13002KT 9SM CLR M30/M35 A3014 RMK AO1 PRESFR SLP300
METAR CYNL 250800Z AUTO 19002KT 9SM CLR M30/M34 A3017 RMK AO1 SLP306
METAR CYNL 250700Z AUTO 25002KT 9SM CLR M28/M32 A3019 RMK AO1 SLP310
METAR CYNL 250600Z AUTO 24006KT 9SM CLR M27/M31 A3019 RMK AO1 SLP310
METAR CYNL 250500Z AUTO 20002KT 9SM CLR M27/M31 A3019 RMK AO1 SLP313
METAR CYNL 250400Z AUTO 23004KT 9SM CLR M25/M29 A3021 RMK AO1 SLP317
METAR CYNL 250300Z AUTO 26003KT 9SM CLR M24/M27 A3021 RMK AO1 SLP318
METAR CYNL 250200Z AUTO 26004KT 9SM CLR M24/M27 A3022 RMK AO1 SLP324
METAR CYNL 250100Z AUTO 27003KT 9SM CLR M24/M27 A3023 RMK AO1 SLP326
METAR CYNL 250000Z AUTO 26004KT 9SM CLR M24/M27 A3023 RMK AO1 SLP329
METAR CYNL 242300Z AUTO ///// 9SM CLR M23/M28 A3024 RMK AO1 SLP329
METAR CYNL 242200Z AUTO ///// 9SM CLR M21/M27 A3023 RMK AO1 SLP325
METAR CYNL 242100Z AUTO 28007KT 9SM CLR M19/M26 A3022 RMK AO1 SLP317
METAR CYNL 242000Z AUTO 28009KT 9SM CLR M19/M25 A3021 RMK AO1 SLP315
METAR CYNL 241900Z AUTO 28008KT 9SM CLR M20/M26 A3021 RMK AO1 SLP316
METAR CYNL 241800Z AUTO ///// 9SM CLR M21/M27 A3020 RMK AO1 SLP314
METAR CYNL 241700Z AUTO ///// 9SM CLR M22/M27 A3019 RMK AO1 SLP314
METAR CYNL 241600Z AUTO ///// 9SM CLR M25/M30 A3017 RMK AO1 PRESRR SLP312
METAR CYNL 241500Z AUTO 29007KT 9SM CLR M26/M31 A3015 RMK AO1 SLP306
METAR CYNL 241400Z AUTO 28007KT 9SM CLR M25/M30 A3014 RMK AO1 SLP299
METAR CYNL 241300Z AUTO ///// 9SM CLR M25/M30 A3013 RMK AO1 SLP294
METAR CYNL 241200Z AUTO ///// 9SM CLR M26/M30 A3012 RMK AO1 SLP293
METAR CYNL 241100Z AUTO ///// 9SM CLR M26/M30 A3011 RMK AO1 SLP291
METAR CYNL 241000Z AUTO ///// 9SM CLR M26/M30 A3009 RMK AO1 SLP284
METAR CYNL 240900Z AUTO ///// 9SM CLR M26/M30 A3010 RMK AO1 PRESRR SLP284
METAR CYNL 240800Z AUTO ///// 9SM CLR M26/M30 A3007 RMK AO1 SLP273
METAR CYNL 240700Z AUTO 29010KT 4SM FEW003 M26/M30 A3006 RMK AO1 SLP267
SPECI CYNL 240656Z AUTO ///// 5SM FEW003 M26/M30 A3006 RMK AO1 SLP267
METAR CYNL 240600Z AUTO 29009KT 9SM CLR M27/M31 A3004 RMK AO1 SLP263
METAR CYNL 240500Z AUTO 30008KT 9SM CLR M27/M31 A3003 RMK AO1 SLP256
METAR CYNL 240400Z AUTO 30006KT 9SM CLR M27/M31 A3001 RMK AO1 SLP250
METAR CYNL 240300Z AUTO 29005KT 9SM CLR M26/M31 A2999 RMK AO1 SLP242
METAR CYNL 240200Z AUTO 29005KT 9SM CLR M26/M30 A2999 RMK AO1 SLP238
METAR CYNL 240100Z AUTO 29008KT 9SM CLR M26/M30 A2998 RMK AO1 PRESRR SLP234
METAR CYNL 240000Z AUTO 31009KT 9SM CLR M26/M30 A2995 RMK AO1 PRESRR SLP227
METAR CYNL 232300Z AUTO ///// 9SM CLR M26/M30 A2993 RMK AO1 PRESRR SLP218
METAR CYNL 232200Z AUTO 32006KT 9SM CLR M24/M29 A2990 RMK AO1 PRESRR SLP204
METAR CYNL 232100Z AUTO 35010KT 9SM CLR M23/M28 A2986 RMK AO1 PRESRR SLP188
METAR CYNL 232000Z AUTO 00007KT 9SM CLR M22/M28 A2984 RMK AO1 SLP178
METAR CYNL 231900Z AUTO 01008KT 9SM CLR M22/M27 A2982 RMK AO1 PRESRR SLP170
METAR CYNL 231800Z AUTO ///// 9SM CLR M22/M26 A2977 RMK AO1 PRESRR SLP151
SPECI CYNL 231701Z AUTO ///// 7SM FEW007 SCT140 M21/M25 A2973 RMK AO1 PRESRR SLP138
METAR CYNL 231700Z AUTO ///// 2 1/2SM FEW007 SCT140 M21/M25 A2973 RMK AO1 PRESRR SLP137
SPECI CYNL 231658Z AUTO ///// 2 1/2SM FEW007 SCT011 M21/M25 A2973 RMK AO1 PRESRR SLP137
SPECI CYNL 231653Z AUTO ///// 9SM SCT007 M21/M25 A2972 RMK AO1 PRESRR SLP135
SPECI CYNL 231641Z AUTO ///// 5SM SCT008 BKN011 M20/M24 A2971 RMK AO1 PRESRR SLP131
SPECI CYNL 231639Z AUTO ///// 1 1/2SM FEW007 SCT009 BKN011 M20/M24 A2971 RMK AO1 PRESRR SLP130
SPECI CYNL 231638Z AUTO ///// 1 1/2SM SCT008 BKN011 BKN014 M20/M24 A2971 RMK AO1 PRESRR SLP130
SPECI CYNL 231629Z AUTO ///// 3SM VV009 M20/M24 A2970 RMK AO1 PRESRR SLP127
SPECI CYNL 231627Z AUTO 02014KT 2 1/2SM VV010 M20/M24 A2970 RMK AO1 PRESRR SLP127
SPECI CYNL 231622Z AUTO ///// 3SM VV012 M20/M24 A2970 RMK AO1 PRESRR SLP126
SPECI CYNL 231619Z AUTO 02015KT 2 1/2SM VV014 M20/M24 A2970 RMK AO1 PRESRR SLP125
SPECI CYNL 231615Z AUTO ///// 5SM VV014 M20/M24 A2970 RMK AO1 PRESRR SLP124
SPECI CYNL 231614Z AUTO 03011G17KT 1SM VV015 M20/M24 A2970 RMK AO1 PRESRR SLP124
SPECI CYNL 231612Z AUTO 03012KT 3/4SM VV016 M20/M24 A2969 RMK AO1 PRESRR SLP124
METAR CYNL 231600Z AUTO 02010G17KT 5SM VV018 M20/M24 A2969 RMK AO1 PRESRR SLP122
SPECI CYNL 231557Z AUTO 02013KT 4SM VV015 M20/M24 A2969 RMK AO1 PRESRR SLP121
SPECI CYNL 231556Z AUTO 03014KT 3SM VV014 M20/M24 A2969 RMK AO1 PRESRR SLP120
SPECI CYNL 231548Z AUTO ///// 3SM VV020 M20/M24 A2968 RMK AO1 PRESRR SLP119
SPECI CYNL 231543Z AUTO 03011G19KT 2SM VV017 M20/M24 A2968 RMK AO1 PRESRR SLP118
SPECI CYNL 231542Z AUTO 03013G19KT 1 1/2SM VV016 M20/M24 A2968 RMK AO1 PRESRR SLP118
SPECI CYNL 231539Z AUTO 03014KT 1 1/4SM VV018 M20/M24 A2968 RMK AO1 PRESRR SLP117
SPECI CYNL 231536Z AUTO ///// 1 1/2SM VV021 M20/M23 A2968 RMK AO1 PRESRR SLP117
SPECI CYNL 231534Z AUTO ///// 2 1/2SM VV023 M20/M24 A2968 RMK AO1 PRESRR SLP117
SPECI CYNL 231533Z AUTO ///// 3SM VV024 M20/M24 A2968 RMK AO1 PRESRR SLP117
SPECI CYNL 231529Z AUTO ///// 3SM VV026 M20/M24 A2967 RMK AO1 PRESRR SLP116
SPECI CYNL 231527Z AUTO ///// 2 1/2SM VV026 M20/M24 A2967 RMK AO1 PRESRR SLP115
SPECI CYNL 231526Z AUTO ///// 3SM VV025 M20/M24 A2967 RMK AO1 PRESRR SLP115
SPECI CYNL 231516Z AUTO ///// 3SM VV021 M19/M23 A2966 RMK AO1 PRESRR SLP111
SPECI CYNL 231514Z AUTO ///// 2 1/2SM VV023 M19/M23 A2966 RMK AO1 PRESRR SLP111
SPECI CYNL 231513Z AUTO ///// 3SM VV024 M19/M23 A2966 RMK AO1 PRESRR SLP111
SPECI CYNL 231508Z AUTO ///// 3SM VV026 M19/M23 A2966 RMK AO1 PRESRR SLP109
METAR CYNL 231500Z AUTO ///// 2SM VV026 M19/M23 A2965 RMK AO1 PRESRR SLP108
SPECI CYNL 231459Z AUTO ///// 2SM VV025 M19/M23 A2965 RMK AO1 PRESRR SLP107
SPECI CYNL 231453Z AUTO ///// 2SM VV021 M19/M23 A2965 RMK AO1 PRESRR SLP106
SPECI CYNL 231447Z AUTO ///// 1 3/4SM VV023 M19/M23 A2965 RMK AO1 PRESRR SLP106
SPECI CYNL 231443Z AUTO ///// 2SM VV023 M19/M23 A2964 RMK AO1 PRESRR SLP105
SPECI CYNL 231431Z AUTO ///// 1 3/4SM VV019 M19/M23 A2964 RMK AO1 PRESRR SLP102
SPECI CYNL 231428Z AUTO ///// 2SM VV020 M19/M23 A2964 RMK AO1 PRESRR SLP102
SPECI CYNL 231422Z AUTO ///// 1 1/2SM VV018 M19/M22 A2964 RMK AO1 PRESRR SLP101
SPECI CYNL 231414Z AUTO ///// 1 1/4SM VV022 M19/M23 A2963 RMK AO1 PRESRR SLP099
SPECI CYNL 231413Z AUTO ///// 1 1/2SM VV023 M19/M23 A2963 RMK AO1 PRESRR SLP099
SPECI CYNL 231412Z AUTO ///// 1 3/4SM VV025 M19/M23 A2963 RMK AO1 PRESRR SLP099
SPECI CYNL 231409Z AUTO ///// 2 1/2SM VV027 M19/M23 A2963 RMK AO1 PRESRR SLP098